<?xml version="1.0" encoding="UTF-8" standalone="no" ?>
<gpx xmlns="http://www.topografix.com/GPX/1/1" xmlns:xsi="http://www.w3.org/2001/XMLSchema-instance" xsi:schemaLocation="http://www.topografix.com/GPX/1/1 http://www.topografix.com/GPX/1/1/gpx.xsd" version="1.1" creator="VisuGPX - https://www.visugpx.com">
  <metadata>
    <name>Saint Paterne Racan</name>
    <desc><![CDATA[
]]></desc>
  </metadata>
  <trk>
    <name><![CDATA[randogps37-55]]></name>
    <trkseg>
      <trkpt lat="47.60252" lon="0.48411">
        <ele>-96.96</ele>
        <time>2015-01-27T08:25:28Z</time>
      </trkpt>
      <trkpt lat="47.60252" lon="0.48411">
        <ele>-91.67</ele>
        <time>2015-01-27T08:25:29Z</time>
      </trkpt>
      <trkpt lat="47.60253" lon="0.48412">
        <ele>-86.38</ele>
        <time>2015-01-27T08:25:30Z</time>
      </trkpt>
      <trkpt lat="47.60252" lon="0.48412">
        <ele>-81.09</ele>
        <time>2015-01-27T08:25:31Z</time>
      </trkpt>
      <trkpt lat="47.60252" lon="0.48412">
        <ele>-76.29</ele>
        <time>2015-01-27T08:25:32Z</time>
      </trkpt>
      <trkpt lat="47.60252" lon="0.48412">
        <ele>-71.48</ele>
        <time>2015-01-27T08:25:33Z</time>
      </trkpt>
      <trkpt lat="47.60252" lon="0.48412">
        <ele>-62.35</ele>
        <time>2015-01-27T08:25:34Z</time>
      </trkpt>
      <trkpt lat="47.60253" lon="0.48413">
        <ele>-58.02</ele>
        <time>2015-01-27T08:25:36Z</time>
      </trkpt>
      <trkpt lat="47.60254" lon="0.48414">
        <ele>-53.7</ele>
        <time>2015-01-27T08:25:37Z</time>
      </trkpt>
      <trkpt lat="47.60254" lon="0.48414">
        <ele>-49.37</ele>
        <time>2015-01-27T08:25:38Z</time>
      </trkpt>
      <trkpt lat="47.60254" lon="0.48414">
        <ele>-46.01</ele>
        <time>2015-01-27T08:25:39Z</time>
      </trkpt>
      <trkpt lat="47.60253" lon="0.48415">
        <ele>-42.16</ele>
        <time>2015-01-27T08:25:40Z</time>
      </trkpt>
      <trkpt lat="47.60253" lon="0.48415">
        <ele>-38.32</ele>
        <time>2015-01-27T08:25:41Z</time>
      </trkpt>
      <trkpt lat="47.60253" lon="0.48415">
        <ele>-34.95</ele>
        <time>2015-01-27T08:25:42Z</time>
      </trkpt>
      <trkpt lat="47.60253" lon="0.48414">
        <ele>-31.59</ele>
        <time>2015-01-27T08:25:43Z</time>
      </trkpt>
      <trkpt lat="47.60253" lon="0.48414">
        <ele>-28.7</ele>
        <time>2015-01-27T08:25:44Z</time>
      </trkpt>
      <trkpt lat="47.60253" lon="0.48414">
        <ele>-25.34</ele>
        <time>2015-01-27T08:25:45Z</time>
      </trkpt>
      <trkpt lat="47.60252" lon="0.48414">
        <ele>-19.57</ele>
        <time>2015-01-27T08:25:47Z</time>
      </trkpt>
      <trkpt lat="47.60252" lon="0.48415">
        <ele>-16.69</ele>
        <time>2015-01-27T08:25:48Z</time>
      </trkpt>
      <trkpt lat="47.60253" lon="0.48415">
        <ele>-10.92</ele>
        <time>2015-01-27T08:25:50Z</time>
      </trkpt>
      <trkpt lat="47.60253" lon="0.48414">
        <ele>-6.11</ele>
        <time>2015-01-27T08:25:52Z</time>
      </trkpt>
      <trkpt lat="47.60254" lon="0.48414">
        <ele>-1.3</ele>
        <time>2015-01-27T08:25:54Z</time>
      </trkpt>
      <trkpt lat="47.60253" lon="0.48414">
        <ele>3.02</ele>
        <time>2015-01-27T08:25:56Z</time>
      </trkpt>
      <trkpt lat="47.60254" lon="0.48415">
        <ele>7.35</ele>
        <time>2015-01-27T08:25:58Z</time>
      </trkpt>
      <trkpt lat="47.60254" lon="0.48415">
        <ele>11.19</ele>
        <time>2015-01-27T08:26:00Z</time>
      </trkpt>
      <trkpt lat="47.60254" lon="0.48416">
        <ele>15.04</ele>
        <time>2015-01-27T08:26:02Z</time>
      </trkpt>
      <trkpt lat="47.60254" lon="0.48416">
        <ele>18.4</ele>
        <time>2015-01-27T08:26:04Z</time>
      </trkpt>
      <trkpt lat="47.60253" lon="0.48414">
        <ele>21.77</ele>
        <time>2015-01-27T08:26:06Z</time>
      </trkpt>
      <trkpt lat="47.60253" lon="0.48413">
        <ele>23.21</ele>
        <time>2015-01-27T08:26:08Z</time>
      </trkpt>
      <trkpt lat="47.60253" lon="0.48413">
        <ele>26.57</ele>
        <time>2015-01-27T08:26:09Z</time>
      </trkpt>
      <trkpt lat="47.60253" lon="0.48413">
        <ele>29.46</ele>
        <time>2015-01-27T08:26:11Z</time>
      </trkpt>
      <trkpt lat="47.60254" lon="0.48413">
        <ele>32.82</ele>
        <time>2015-01-27T08:26:14Z</time>
      </trkpt>
      <trkpt lat="47.60253" lon="0.48413">
        <ele>36.19</ele>
        <time>2015-01-27T08:26:17Z</time>
      </trkpt>
      <trkpt lat="47.60253" lon="0.48413">
        <ele>40.03</ele>
        <time>2015-01-27T08:26:21Z</time>
      </trkpt>
      <trkpt lat="47.60252" lon="0.48412">
        <ele>42.92</ele>
        <time>2015-01-27T08:26:25Z</time>
      </trkpt>
      <trkpt lat="47.60253" lon="0.48412">
        <ele>46.28</ele>
        <time>2015-01-27T08:26:29Z</time>
      </trkpt>
      <trkpt lat="47.60254" lon="0.48411">
        <ele>49.16</ele>
        <time>2015-01-27T08:26:34Z</time>
      </trkpt>
      <trkpt lat="47.60254" lon="0.48411">
        <ele>50.13</ele>
        <time>2015-01-27T08:26:36Z</time>
      </trkpt>
      <trkpt lat="47.60254" lon="0.48412">
        <ele>53.49</ele>
        <time>2015-01-27T08:26:43Z</time>
      </trkpt>
      <trkpt lat="47.60252" lon="0.48413">
        <ele>54.45</ele>
        <time>2015-01-27T08:26:45Z</time>
      </trkpt>
      <trkpt lat="47.60248" lon="0.48412">
        <ele>57.34</ele>
        <time>2015-01-27T08:26:54Z</time>
      </trkpt>
      <trkpt lat="47.60248" lon="0.48408">
        <ele>60.7</ele>
        <time>2015-01-27T08:27:04Z</time>
      </trkpt>
      <trkpt lat="47.60248" lon="0.48404">
        <ele>62.14</ele>
        <time>2015-01-27T08:27:09Z</time>
      </trkpt>
      <trkpt lat="47.60251" lon="0.48394">
        <ele>64.55</ele>
        <time>2015-01-27T08:27:19Z</time>
      </trkpt>
      <trkpt lat="47.60267" lon="0.48393">
        <ele>66.47</ele>
        <time>2015-01-27T08:27:34Z</time>
      </trkpt>
      <trkpt lat="47.60274" lon="0.4839">
        <ele>65.99</ele>
        <time>2015-01-27T08:27:47Z</time>
      </trkpt>
      <trkpt lat="47.60275" lon="0.48387">
        <ele>65.99</ele>
        <time>2015-01-27T08:27:50Z</time>
      </trkpt>
      <trkpt lat="47.60282" lon="0.48378">
        <ele>65.99</ele>
        <time>2015-01-27T08:28:06Z</time>
      </trkpt>
      <trkpt lat="47.60286" lon="0.48375">
        <ele>65.99</ele>
        <time>2015-01-27T08:28:23Z</time>
      </trkpt>
      <trkpt lat="47.60306" lon="0.48349">
        <ele>66.47</ele>
        <time>2015-01-27T08:28:37Z</time>
      </trkpt>
      <trkpt lat="47.60308" lon="0.48332">
        <ele>66.95</ele>
        <time>2015-01-27T08:28:45Z</time>
      </trkpt>
      <trkpt lat="47.60314" lon="0.48321">
        <ele>66.95</ele>
        <time>2015-01-27T08:28:52Z</time>
      </trkpt>
      <trkpt lat="47.6032" lon="0.4829">
        <ele>67.43</ele>
        <time>2015-01-27T08:29:07Z</time>
      </trkpt>
      <trkpt lat="47.60322" lon="0.48268">
        <ele>67.91</ele>
        <time>2015-01-27T08:29:18Z</time>
      </trkpt>
      <trkpt lat="47.60322" lon="0.48256">
        <ele>67.91</ele>
        <time>2015-01-27T08:29:24Z</time>
      </trkpt>
      <trkpt lat="47.60324" lon="0.48234">
        <ele>68.39</ele>
        <time>2015-01-27T08:29:35Z</time>
      </trkpt>
      <trkpt lat="47.60314" lon="0.48206">
        <ele>68.39</ele>
        <time>2015-01-27T08:29:51Z</time>
      </trkpt>
      <trkpt lat="47.6031" lon="0.48184">
        <ele>67.91</ele>
        <time>2015-01-27T08:30:04Z</time>
      </trkpt>
      <trkpt lat="47.60305" lon="0.48151">
        <ele>67.91</ele>
        <time>2015-01-27T08:30:21Z</time>
      </trkpt>
      <trkpt lat="47.60301" lon="0.48133">
        <ele>67.91</ele>
        <time>2015-01-27T08:30:39Z</time>
      </trkpt>
      <trkpt lat="47.60296" lon="0.48139">
        <ele>68.87</ele>
        <time>2015-01-27T08:30:52Z</time>
      </trkpt>
      <trkpt lat="47.60304" lon="0.48118">
        <ele>68.39</ele>
        <time>2015-01-27T08:31:02Z</time>
      </trkpt>
      <trkpt lat="47.60298" lon="0.48075">
        <ele>67.43</ele>
        <time>2015-01-27T08:31:20Z</time>
      </trkpt>
      <trkpt lat="47.60295" lon="0.48038">
        <ele>67.43</ele>
        <time>2015-01-27T08:31:36Z</time>
      </trkpt>
      <trkpt lat="47.60288" lon="0.47997">
        <ele>67.43</ele>
        <time>2015-01-27T08:31:54Z</time>
      </trkpt>
      <trkpt lat="47.60282" lon="0.47958">
        <ele>67.43</ele>
        <time>2015-01-27T08:32:14Z</time>
      </trkpt>
      <trkpt lat="47.60282" lon="0.47955">
        <ele>67.43</ele>
        <time>2015-01-27T08:32:16Z</time>
      </trkpt>
      <trkpt lat="47.60272" lon="0.47925">
        <ele>67.91</ele>
        <time>2015-01-27T08:32:33Z</time>
      </trkpt>
      <trkpt lat="47.60271" lon="0.47917">
        <ele>67.91</ele>
        <time>2015-01-27T08:32:43Z</time>
      </trkpt>
      <trkpt lat="47.60263" lon="0.47892">
        <ele>67.91</ele>
        <time>2015-01-27T08:32:56Z</time>
      </trkpt>
      <trkpt lat="47.60265" lon="0.47853">
        <ele>67.91</ele>
        <time>2015-01-27T08:33:13Z</time>
      </trkpt>
      <trkpt lat="47.60277" lon="0.47824">
        <ele>67.43</ele>
        <time>2015-01-27T08:33:29Z</time>
      </trkpt>
      <trkpt lat="47.60284" lon="0.47807">
        <ele>66.95</ele>
        <time>2015-01-27T08:33:39Z</time>
      </trkpt>
      <trkpt lat="47.60287" lon="0.47806">
        <ele>66.95</ele>
        <time>2015-01-27T08:33:42Z</time>
      </trkpt>
      <trkpt lat="47.60292" lon="0.47806">
        <ele>67.43</ele>
        <time>2015-01-27T08:33:49Z</time>
      </trkpt>
      <trkpt lat="47.60299" lon="0.47777">
        <ele>67.43</ele>
        <time>2015-01-27T08:34:05Z</time>
      </trkpt>
      <trkpt lat="47.60298" lon="0.47747">
        <ele>66.95</ele>
        <time>2015-01-27T08:34:19Z</time>
      </trkpt>
      <trkpt lat="47.60303" lon="0.4771">
        <ele>66.95</ele>
        <time>2015-01-27T08:34:36Z</time>
      </trkpt>
      <trkpt lat="47.60309" lon="0.47674">
        <ele>66.95</ele>
        <time>2015-01-27T08:34:54Z</time>
      </trkpt>
      <trkpt lat="47.60305" lon="0.47661">
        <ele>67.43</ele>
        <time>2015-01-27T08:35:07Z</time>
      </trkpt>
      <trkpt lat="47.60303" lon="0.47655">
        <ele>67.43</ele>
        <time>2015-01-27T08:35:11Z</time>
      </trkpt>
      <trkpt lat="47.60301" lon="0.47648">
        <ele>67.91</ele>
        <time>2015-01-27T08:35:15Z</time>
      </trkpt>
      <trkpt lat="47.60297" lon="0.47629">
        <ele>67.91</ele>
        <time>2015-01-27T08:35:25Z</time>
      </trkpt>
      <trkpt lat="47.60284" lon="0.47589">
        <ele>69.35</ele>
        <time>2015-01-27T08:35:45Z</time>
      </trkpt>
      <trkpt lat="47.60277" lon="0.47552">
        <ele>71.27</ele>
        <time>2015-01-27T08:36:03Z</time>
      </trkpt>
      <trkpt lat="47.60274" lon="0.47538">
        <ele>71.76</ele>
        <time>2015-01-27T08:36:12Z</time>
      </trkpt>
      <trkpt lat="47.60273" lon="0.47523">
        <ele>72.24</ele>
        <time>2015-01-27T08:36:21Z</time>
      </trkpt>
      <trkpt lat="47.60274" lon="0.47491">
        <ele>73.2</ele>
        <time>2015-01-27T08:36:39Z</time>
      </trkpt>
      <trkpt lat="47.60273" lon="0.47488">
        <ele>73.68</ele>
        <time>2015-01-27T08:36:41Z</time>
      </trkpt>
      <trkpt lat="47.60274" lon="0.47485">
        <ele>74.16</ele>
        <time>2015-01-27T08:36:51Z</time>
      </trkpt>
      <trkpt lat="47.60265" lon="0.47473">
        <ele>75.12</ele>
        <time>2015-01-27T08:37:04Z</time>
      </trkpt>
      <trkpt lat="47.60254" lon="0.47444">
        <ele>77.52</ele>
        <time>2015-01-27T08:37:19Z</time>
      </trkpt>
      <trkpt lat="47.60245" lon="0.47417">
        <ele>79.93</ele>
        <time>2015-01-27T08:37:38Z</time>
      </trkpt>
      <trkpt lat="47.60245" lon="0.47415">
        <ele>79.93</ele>
        <time>2015-01-27T08:37:40Z</time>
      </trkpt>
      <trkpt lat="47.60242" lon="0.474">
        <ele>80.89</ele>
        <time>2015-01-27T08:37:53Z</time>
      </trkpt>
      <trkpt lat="47.60241" lon="0.47396">
        <ele>81.37</ele>
        <time>2015-01-27T08:38:01Z</time>
      </trkpt>
      <trkpt lat="47.60234" lon="0.47361">
        <ele>84.25</ele>
        <time>2015-01-27T08:38:21Z</time>
      </trkpt>
      <trkpt lat="47.60234" lon="0.47351">
        <ele>85.21</ele>
        <time>2015-01-27T08:38:26Z</time>
      </trkpt>
      <trkpt lat="47.60234" lon="0.4734">
        <ele>86.66</ele>
        <time>2015-01-27T08:38:31Z</time>
      </trkpt>
      <trkpt lat="47.60233" lon="0.47336">
        <ele>87.14</ele>
        <time>2015-01-27T08:38:33Z</time>
      </trkpt>
      <trkpt lat="47.60232" lon="0.47328">
        <ele>88.1</ele>
        <time>2015-01-27T08:38:38Z</time>
      </trkpt>
      <trkpt lat="47.60232" lon="0.47317">
        <ele>89.06</ele>
        <time>2015-01-27T08:38:45Z</time>
      </trkpt>
      <trkpt lat="47.60231" lon="0.47314">
        <ele>89.06</ele>
        <time>2015-01-27T08:38:47Z</time>
      </trkpt>
      <trkpt lat="47.60225" lon="0.47281">
        <ele>91.94</ele>
        <time>2015-01-27T08:39:05Z</time>
      </trkpt>
      <trkpt lat="47.60221" lon="0.47257">
        <ele>95.31</ele>
        <time>2015-01-27T08:39:21Z</time>
      </trkpt>
      <trkpt lat="47.60213" lon="0.47241">
        <ele>97.23</ele>
        <time>2015-01-27T08:39:36Z</time>
      </trkpt>
      <trkpt lat="47.60201" lon="0.47222">
        <ele>99.63</ele>
        <time>2015-01-27T08:39:54Z</time>
      </trkpt>
      <trkpt lat="47.60196" lon="0.47198">
        <ele>101.08</ele>
        <time>2015-01-27T08:40:09Z</time>
      </trkpt>
      <trkpt lat="47.60193" lon="0.47176">
        <ele>102.52</ele>
        <time>2015-01-27T08:40:25Z</time>
      </trkpt>
      <trkpt lat="47.60192" lon="0.47166">
        <ele>103</ele>
        <time>2015-01-27T08:40:31Z</time>
      </trkpt>
      <trkpt lat="47.60186" lon="0.47134">
        <ele>104.44</ele>
        <time>2015-01-27T08:40:47Z</time>
      </trkpt>
      <trkpt lat="47.60182" lon="0.47109">
        <ele>105.4</ele>
        <time>2015-01-27T08:41:01Z</time>
      </trkpt>
      <trkpt lat="47.60176" lon="0.47081">
        <ele>105.88</ele>
        <time>2015-01-27T08:41:16Z</time>
      </trkpt>
      <trkpt lat="47.60173" lon="0.47071">
        <ele>106.36</ele>
        <time>2015-01-27T08:41:27Z</time>
      </trkpt>
      <trkpt lat="47.60168" lon="0.47046">
        <ele>106.36</ele>
        <time>2015-01-27T08:41:41Z</time>
      </trkpt>
      <trkpt lat="47.60158" lon="0.47013">
        <ele>107.32</ele>
        <time>2015-01-27T08:41:58Z</time>
      </trkpt>
      <trkpt lat="47.60145" lon="0.46989">
        <ele>107.81</ele>
        <time>2015-01-27T08:42:15Z</time>
      </trkpt>
      <trkpt lat="47.60135" lon="0.46986">
        <ele>108.29</ele>
        <time>2015-01-27T08:42:31Z</time>
      </trkpt>
      <trkpt lat="47.60133" lon="0.46986">
        <ele>108.29</ele>
        <time>2015-01-27T08:42:46Z</time>
      </trkpt>
      <trkpt lat="47.60127" lon="0.46987">
        <ele>108.29</ele>
        <time>2015-01-27T08:42:53Z</time>
      </trkpt>
      <trkpt lat="47.60112" lon="0.46988">
        <ele>108.77</ele>
        <time>2015-01-27T08:43:11Z</time>
      </trkpt>
      <trkpt lat="47.6011" lon="0.46989">
        <ele>108.77</ele>
        <time>2015-01-27T08:43:24Z</time>
      </trkpt>
      <trkpt lat="47.60091" lon="0.46989">
        <ele>109.73</ele>
        <time>2015-01-27T08:43:40Z</time>
      </trkpt>
      <trkpt lat="47.60069" lon="0.46995">
        <ele>109.73</ele>
        <time>2015-01-27T08:44:00Z</time>
      </trkpt>
      <trkpt lat="47.60053" lon="0.46998">
        <ele>111.17</ele>
        <time>2015-01-27T08:44:17Z</time>
      </trkpt>
      <trkpt lat="47.60045" lon="0.46998">
        <ele>110.21</ele>
        <time>2015-01-27T08:44:27Z</time>
      </trkpt>
      <trkpt lat="47.60022" lon="0.46995">
        <ele>109.73</ele>
        <time>2015-01-27T08:44:47Z</time>
      </trkpt>
      <trkpt lat="47.60001" lon="0.46988">
        <ele>109.73</ele>
        <time>2015-01-27T08:45:07Z</time>
      </trkpt>
      <trkpt lat="47.59985" lon="0.46981">
        <ele>109.73</ele>
        <time>2015-01-27T08:45:23Z</time>
      </trkpt>
      <trkpt lat="47.59966" lon="0.46973">
        <ele>110.21</ele>
        <time>2015-01-27T08:45:40Z</time>
      </trkpt>
      <trkpt lat="47.59952" lon="0.46964">
        <ele>110.69</ele>
        <time>2015-01-27T08:45:54Z</time>
      </trkpt>
      <trkpt lat="47.59933" lon="0.46949">
        <ele>111.17</ele>
        <time>2015-01-27T08:46:12Z</time>
      </trkpt>
      <trkpt lat="47.59914" lon="0.46935">
        <ele>111.17</ele>
        <time>2015-01-27T08:46:30Z</time>
      </trkpt>
      <trkpt lat="47.59898" lon="0.46923">
        <ele>112.13</ele>
        <time>2015-01-27T08:46:46Z</time>
      </trkpt>
      <trkpt lat="47.59879" lon="0.46912">
        <ele>112.13</ele>
        <time>2015-01-27T08:47:04Z</time>
      </trkpt>
      <trkpt lat="47.59861" lon="0.46907">
        <ele>112.61</ele>
        <time>2015-01-27T08:47:22Z</time>
      </trkpt>
      <trkpt lat="47.59842" lon="0.46903">
        <ele>112.61</ele>
        <time>2015-01-27T08:47:39Z</time>
      </trkpt>
      <trkpt lat="47.59838" lon="0.46903">
        <ele>112.61</ele>
        <time>2015-01-27T08:47:42Z</time>
      </trkpt>
      <trkpt lat="47.59816" lon="0.46908">
        <ele>113.09</ele>
        <time>2015-01-27T08:48:00Z</time>
      </trkpt>
      <trkpt lat="47.59794" lon="0.46917">
        <ele>114.05</ele>
        <time>2015-01-27T08:48:19Z</time>
      </trkpt>
      <trkpt lat="47.59774" lon="0.46926">
        <ele>113.09</ele>
        <time>2015-01-27T08:48:37Z</time>
      </trkpt>
      <trkpt lat="47.59754" lon="0.46934">
        <ele>113.09</ele>
        <time>2015-01-27T08:48:55Z</time>
      </trkpt>
      <trkpt lat="47.59736" lon="0.46942">
        <ele>113.09</ele>
        <time>2015-01-27T08:49:11Z</time>
      </trkpt>
      <trkpt lat="47.59722" lon="0.46946">
        <ele>113.57</ele>
        <time>2015-01-27T08:49:24Z</time>
      </trkpt>
      <trkpt lat="47.59703" lon="0.46954">
        <ele>113.57</ele>
        <time>2015-01-27T08:49:40Z</time>
      </trkpt>
      <trkpt lat="47.59682" lon="0.46962">
        <ele>114.05</ele>
        <time>2015-01-27T08:49:58Z</time>
      </trkpt>
      <trkpt lat="47.59664" lon="0.46969">
        <ele>114.05</ele>
        <time>2015-01-27T08:50:14Z</time>
      </trkpt>
      <trkpt lat="47.59645" lon="0.46977">
        <ele>114.53</ele>
        <time>2015-01-27T08:50:31Z</time>
      </trkpt>
      <trkpt lat="47.59629" lon="0.46985">
        <ele>114.53</ele>
        <time>2015-01-27T08:50:46Z</time>
      </trkpt>
      <trkpt lat="47.5961" lon="0.46992">
        <ele>115.01</ele>
        <time>2015-01-27T08:51:01Z</time>
      </trkpt>
      <trkpt lat="47.59592" lon="0.46997">
        <ele>115.01</ele>
        <time>2015-01-27T08:51:15Z</time>
      </trkpt>
      <trkpt lat="47.59574" lon="0.47005">
        <ele>115.01</ele>
        <time>2015-01-27T08:51:31Z</time>
      </trkpt>
      <trkpt lat="47.59553" lon="0.47012">
        <ele>115.5</ele>
        <time>2015-01-27T08:51:48Z</time>
      </trkpt>
      <trkpt lat="47.59533" lon="0.4702">
        <ele>115.5</ele>
        <time>2015-01-27T08:52:05Z</time>
      </trkpt>
      <trkpt lat="47.59513" lon="0.47028">
        <ele>115.5</ele>
        <time>2015-01-27T08:52:23Z</time>
      </trkpt>
      <trkpt lat="47.59492" lon="0.47035">
        <ele>115.5</ele>
        <time>2015-01-27T08:52:40Z</time>
      </trkpt>
      <trkpt lat="47.5949" lon="0.47036">
        <ele>115.5</ele>
        <time>2015-01-27T08:52:42Z</time>
      </trkpt>
      <trkpt lat="47.59479" lon="0.47041">
        <ele>115.5</ele>
        <time>2015-01-27T08:52:55Z</time>
      </trkpt>
      <trkpt lat="47.59477" lon="0.47048">
        <ele>115.98</ele>
        <time>2015-01-27T08:53:07Z</time>
      </trkpt>
      <trkpt lat="47.59475" lon="0.47049">
        <ele>115.5</ele>
        <time>2015-01-27T08:53:21Z</time>
      </trkpt>
      <trkpt lat="47.59472" lon="0.47043">
        <ele>115.5</ele>
        <time>2015-01-27T08:53:42Z</time>
      </trkpt>
      <trkpt lat="47.59472" lon="0.47041">
        <ele>115.98</ele>
        <time>2015-01-27T08:53:45Z</time>
      </trkpt>
      <trkpt lat="47.59461" lon="0.47017">
        <ele>115.5</ele>
        <time>2015-01-27T08:54:03Z</time>
      </trkpt>
      <trkpt lat="47.59461" lon="0.4701">
        <ele>115.5</ele>
        <time>2015-01-27T08:54:07Z</time>
      </trkpt>
      <trkpt lat="47.59458" lon="0.47">
        <ele>115.98</ele>
        <time>2015-01-27T08:54:14Z</time>
      </trkpt>
      <trkpt lat="47.59452" lon="0.46971">
        <ele>115.98</ele>
        <time>2015-01-27T08:54:31Z</time>
      </trkpt>
      <trkpt lat="47.59449" lon="0.46953">
        <ele>115.98</ele>
        <time>2015-01-27T08:54:46Z</time>
      </trkpt>
      <trkpt lat="47.59448" lon="0.46952">
        <ele>115.98</ele>
        <time>2015-01-27T08:54:58Z</time>
      </trkpt>
      <trkpt lat="47.59443" lon="0.46938">
        <ele>115.98</ele>
        <time>2015-01-27T08:55:06Z</time>
      </trkpt>
      <trkpt lat="47.59435" lon="0.46906">
        <ele>115.98</ele>
        <time>2015-01-27T08:55:21Z</time>
      </trkpt>
      <trkpt lat="47.59429" lon="0.4688">
        <ele>115.98</ele>
        <time>2015-01-27T08:55:34Z</time>
      </trkpt>
      <trkpt lat="47.59428" lon="0.46873">
        <ele>115.98</ele>
        <time>2015-01-27T08:55:38Z</time>
      </trkpt>
      <trkpt lat="47.5942" lon="0.46836">
        <ele>115.01</ele>
        <time>2015-01-27T08:55:56Z</time>
      </trkpt>
      <trkpt lat="47.59408" lon="0.46786">
        <ele>114.05</ele>
        <time>2015-01-27T08:56:19Z</time>
      </trkpt>
      <trkpt lat="47.59399" lon="0.46743">
        <ele>113.57</ele>
        <time>2015-01-27T08:56:41Z</time>
      </trkpt>
      <trkpt lat="47.59391" lon="0.46702">
        <ele>111.65</ele>
        <time>2015-01-27T08:57:01Z</time>
      </trkpt>
      <trkpt lat="47.59387" lon="0.46692">
        <ele>111.17</ele>
        <time>2015-01-27T08:57:16Z</time>
      </trkpt>
      <trkpt lat="47.59383" lon="0.46671">
        <ele>110.69</ele>
        <time>2015-01-27T08:57:34Z</time>
      </trkpt>
      <trkpt lat="47.59381" lon="0.46664">
        <ele>110.69</ele>
        <time>2015-01-27T08:57:38Z</time>
      </trkpt>
      <trkpt lat="47.59377" lon="0.46648">
        <ele>109.73</ele>
        <time>2015-01-27T08:57:47Z</time>
      </trkpt>
      <trkpt lat="47.59375" lon="0.4664">
        <ele>109.73</ele>
        <time>2015-01-27T08:57:52Z</time>
      </trkpt>
      <trkpt lat="47.59365" lon="0.46595">
        <ele>107.81</ele>
        <time>2015-01-27T08:58:13Z</time>
      </trkpt>
      <trkpt lat="47.59356" lon="0.4655">
        <ele>105.88</ele>
        <time>2015-01-27T08:58:33Z</time>
      </trkpt>
      <trkpt lat="47.59354" lon="0.46538">
        <ele>105.4</ele>
        <time>2015-01-27T08:58:45Z</time>
      </trkpt>
      <trkpt lat="47.59361" lon="0.46527">
        <ele>103.48</ele>
        <time>2015-01-27T08:58:58Z</time>
      </trkpt>
      <trkpt lat="47.59367" lon="0.46527">
        <ele>103</ele>
        <time>2015-01-27T08:59:11Z</time>
      </trkpt>
      <trkpt lat="47.59365" lon="0.46527">
        <ele>103</ele>
        <time>2015-01-27T08:59:13Z</time>
      </trkpt>
      <trkpt lat="47.59356" lon="0.46527">
        <ele>103.48</ele>
        <time>2015-01-27T08:59:21Z</time>
      </trkpt>
      <trkpt lat="47.59351" lon="0.46527">
        <ele>103.96</ele>
        <time>2015-01-27T08:59:25Z</time>
      </trkpt>
      <trkpt lat="47.59344" lon="0.46509">
        <ele>103.96</ele>
        <time>2015-01-27T08:59:34Z</time>
      </trkpt>
      <trkpt lat="47.5933" lon="0.46467">
        <ele>101.56</ele>
        <time>2015-01-27T08:59:54Z</time>
      </trkpt>
      <trkpt lat="47.59311" lon="0.46432">
        <ele>99.15</ele>
        <time>2015-01-27T09:00:13Z</time>
      </trkpt>
      <trkpt lat="47.59285" lon="0.46403">
        <ele>97.71</ele>
        <time>2015-01-27T09:00:32Z</time>
      </trkpt>
      <trkpt lat="47.5926" lon="0.46387">
        <ele>95.79</ele>
        <time>2015-01-27T09:00:52Z</time>
      </trkpt>
      <trkpt lat="47.59252" lon="0.46384">
        <ele>94.83</ele>
        <time>2015-01-27T09:00:57Z</time>
      </trkpt>
      <trkpt lat="47.59235" lon="0.4638">
        <ele>93.87</ele>
        <time>2015-01-27T09:01:12Z</time>
      </trkpt>
      <trkpt lat="47.59218" lon="0.46371">
        <ele>92.9</ele>
        <time>2015-01-27T09:01:26Z</time>
      </trkpt>
      <trkpt lat="47.59202" lon="0.46366">
        <ele>91.46</ele>
        <time>2015-01-27T09:01:36Z</time>
      </trkpt>
      <trkpt lat="47.59178" lon="0.46359">
        <ele>90.02</ele>
        <time>2015-01-27T09:01:53Z</time>
      </trkpt>
      <trkpt lat="47.59159" lon="0.46353">
        <ele>89.06</ele>
        <time>2015-01-27T09:02:08Z</time>
      </trkpt>
      <trkpt lat="47.59139" lon="0.46349">
        <ele>88.1</ele>
        <time>2015-01-27T09:02:22Z</time>
      </trkpt>
      <trkpt lat="47.59134" lon="0.46348">
        <ele>87.62</ele>
        <time>2015-01-27T09:02:26Z</time>
      </trkpt>
      <trkpt lat="47.59112" lon="0.46343">
        <ele>87.14</ele>
        <time>2015-01-27T09:02:41Z</time>
      </trkpt>
      <trkpt lat="47.59088" lon="0.46345">
        <ele>86.66</ele>
        <time>2015-01-27T09:02:59Z</time>
      </trkpt>
      <trkpt lat="47.59086" lon="0.46345">
        <ele>86.66</ele>
        <time>2015-01-27T09:03:04Z</time>
      </trkpt>
      <trkpt lat="47.59063" lon="0.46343">
        <ele>86.18</ele>
        <time>2015-01-27T09:03:19Z</time>
      </trkpt>
      <trkpt lat="47.59053" lon="0.46345">
        <ele>85.69</ele>
        <time>2015-01-27T09:03:26Z</time>
      </trkpt>
      <trkpt lat="47.5904" lon="0.46347">
        <ele>85.21</ele>
        <time>2015-01-27T09:03:38Z</time>
      </trkpt>
      <trkpt lat="47.59019" lon="0.46344">
        <ele>84.73</ele>
        <time>2015-01-27T09:03:52Z</time>
      </trkpt>
      <trkpt lat="47.58989" lon="0.46343">
        <ele>84.25</ele>
        <time>2015-01-27T09:04:10Z</time>
      </trkpt>
      <trkpt lat="47.58963" lon="0.46339">
        <ele>83.77</ele>
        <time>2015-01-27T09:04:28Z</time>
      </trkpt>
      <trkpt lat="47.5896" lon="0.46338">
        <ele>84.25</ele>
        <time>2015-01-27T09:04:30Z</time>
      </trkpt>
      <trkpt lat="47.58946" lon="0.46325">
        <ele>83.77</ele>
        <time>2015-01-27T09:04:44Z</time>
      </trkpt>
      <trkpt lat="47.58939" lon="0.46316">
        <ele>83.77</ele>
        <time>2015-01-27T09:04:55Z</time>
      </trkpt>
      <trkpt lat="47.58928" lon="0.46291">
        <ele>83.29</ele>
        <time>2015-01-27T09:05:08Z</time>
      </trkpt>
      <trkpt lat="47.58912" lon="0.46263">
        <ele>83.29</ele>
        <time>2015-01-27T09:05:24Z</time>
      </trkpt>
      <trkpt lat="47.58892" lon="0.46246">
        <ele>83.29</ele>
        <time>2015-01-27T09:05:38Z</time>
      </trkpt>
      <trkpt lat="47.58881" lon="0.46242">
        <ele>83.29</ele>
        <time>2015-01-27T09:05:53Z</time>
      </trkpt>
      <trkpt lat="47.58876" lon="0.46239">
        <ele>83.29</ele>
        <time>2015-01-27T09:06:04Z</time>
      </trkpt>
      <trkpt lat="47.5887" lon="0.46234">
        <ele>82.81</ele>
        <time>2015-01-27T09:06:19Z</time>
      </trkpt>
      <trkpt lat="47.58869" lon="0.46232">
        <ele>83.29</ele>
        <time>2015-01-27T09:06:21Z</time>
      </trkpt>
      <trkpt lat="47.58864" lon="0.46228">
        <ele>83.29</ele>
        <time>2015-01-27T09:06:27Z</time>
      </trkpt>
      <trkpt lat="47.58859" lon="0.46223">
        <ele>82.81</ele>
        <time>2015-01-27T09:06:33Z</time>
      </trkpt>
      <trkpt lat="47.58853" lon="0.46218">
        <ele>82.81</ele>
        <time>2015-01-27T09:06:40Z</time>
      </trkpt>
      <trkpt lat="47.58842" lon="0.46208">
        <ele>83.29</ele>
        <time>2015-01-27T09:06:49Z</time>
      </trkpt>
      <trkpt lat="47.58821" lon="0.46186">
        <ele>83.29</ele>
        <time>2015-01-27T09:07:07Z</time>
      </trkpt>
      <trkpt lat="47.58801" lon="0.46161">
        <ele>83.29</ele>
        <time>2015-01-27T09:07:26Z</time>
      </trkpt>
      <trkpt lat="47.58787" lon="0.46137">
        <ele>83.77</ele>
        <time>2015-01-27T09:07:41Z</time>
      </trkpt>
      <trkpt lat="47.5878" lon="0.46124">
        <ele>83.77</ele>
        <time>2015-01-27T09:07:49Z</time>
      </trkpt>
      <trkpt lat="47.58765" lon="0.46103">
        <ele>84.25</ele>
        <time>2015-01-27T09:08:04Z</time>
      </trkpt>
      <trkpt lat="47.58758" lon="0.46083">
        <ele>84.25</ele>
        <time>2015-01-27T09:08:15Z</time>
      </trkpt>
      <trkpt lat="47.58741" lon="0.46055">
        <ele>84.73</ele>
        <time>2015-01-27T09:08:34Z</time>
      </trkpt>
      <trkpt lat="47.58728" lon="0.46033">
        <ele>85.21</ele>
        <time>2015-01-27T09:08:48Z</time>
      </trkpt>
      <trkpt lat="47.58719" lon="0.46021">
        <ele>85.21</ele>
        <time>2015-01-27T09:09:00Z</time>
      </trkpt>
      <trkpt lat="47.58711" lon="0.46004">
        <ele>85.21</ele>
        <time>2015-01-27T09:09:12Z</time>
      </trkpt>
      <trkpt lat="47.58698" lon="0.45991">
        <ele>86.18</ele>
        <time>2015-01-27T09:09:25Z</time>
      </trkpt>
      <trkpt lat="47.58697" lon="0.4599">
        <ele>86.18</ele>
        <time>2015-01-27T09:09:51Z</time>
      </trkpt>
      <trkpt lat="47.58691" lon="0.45978">
        <ele>86.18</ele>
        <time>2015-01-27T09:09:59Z</time>
      </trkpt>
      <trkpt lat="47.58686" lon="0.45973">
        <ele>86.18</ele>
        <time>2015-01-27T09:10:08Z</time>
      </trkpt>
      <trkpt lat="47.58678" lon="0.45955">
        <ele>86.66</ele>
        <time>2015-01-27T09:10:18Z</time>
      </trkpt>
      <trkpt lat="47.58664" lon="0.45929">
        <ele>87.14</ele>
        <time>2015-01-27T09:10:34Z</time>
      </trkpt>
      <trkpt lat="47.58659" lon="0.45921">
        <ele>87.62</ele>
        <time>2015-01-27T09:10:39Z</time>
      </trkpt>
      <trkpt lat="47.58666" lon="0.45899">
        <ele>88.1</ele>
        <time>2015-01-27T09:10:52Z</time>
      </trkpt>
      <trkpt lat="47.58668" lon="0.45896">
        <ele>88.1</ele>
        <time>2015-01-27T09:10:54Z</time>
      </trkpt>
      <trkpt lat="47.58673" lon="0.45886">
        <ele>88.58</ele>
        <time>2015-01-27T09:11:08Z</time>
      </trkpt>
      <trkpt lat="47.58674" lon="0.45885">
        <ele>89.06</ele>
        <time>2015-01-27T09:11:09Z</time>
      </trkpt>
      <trkpt lat="47.58689" lon="0.45856">
        <ele>90.5</ele>
        <time>2015-01-27T09:11:28Z</time>
      </trkpt>
      <trkpt lat="47.587" lon="0.45839">
        <ele>91.46</ele>
        <time>2015-01-27T09:11:44Z</time>
      </trkpt>
      <trkpt lat="47.58703" lon="0.45835">
        <ele>91.46</ele>
        <time>2015-01-27T09:11:48Z</time>
      </trkpt>
      <trkpt lat="47.58709" lon="0.45818">
        <ele>92.9</ele>
        <time>2015-01-27T09:12:04Z</time>
      </trkpt>
      <trkpt lat="47.58712" lon="0.45801">
        <ele>93.87</ele>
        <time>2015-01-27T09:12:21Z</time>
      </trkpt>
      <trkpt lat="47.58717" lon="0.45777">
        <ele>95.79</ele>
        <time>2015-01-27T09:12:35Z</time>
      </trkpt>
      <trkpt lat="47.58722" lon="0.45755">
        <ele>97.71</ele>
        <time>2015-01-27T09:12:52Z</time>
      </trkpt>
      <trkpt lat="47.5873" lon="0.45741">
        <ele>99.15</ele>
        <time>2015-01-27T09:13:07Z</time>
      </trkpt>
      <trkpt lat="47.58735" lon="0.45734">
        <ele>100.11</ele>
        <time>2015-01-27T09:13:15Z</time>
      </trkpt>
      <trkpt lat="47.58749" lon="0.4572">
        <ele>101.56</ele>
        <time>2015-01-27T09:13:31Z</time>
      </trkpt>
      <trkpt lat="47.5876" lon="0.45708">
        <ele>103</ele>
        <time>2015-01-27T09:13:45Z</time>
      </trkpt>
      <trkpt lat="47.58771" lon="0.45695">
        <ele>103.48</ele>
        <time>2015-01-27T09:13:57Z</time>
      </trkpt>
      <trkpt lat="47.58781" lon="0.45681">
        <ele>104.92</ele>
        <time>2015-01-27T09:14:11Z</time>
      </trkpt>
      <trkpt lat="47.58793" lon="0.45663">
        <ele>105.4</ele>
        <time>2015-01-27T09:14:26Z</time>
      </trkpt>
      <trkpt lat="47.58798" lon="0.45649">
        <ele>106.36</ele>
        <time>2015-01-27T09:14:41Z</time>
      </trkpt>
      <trkpt lat="47.588" lon="0.45649">
        <ele>105.88</ele>
        <time>2015-01-27T09:14:47Z</time>
      </trkpt>
      <trkpt lat="47.58803" lon="0.45646">
        <ele>105.88</ele>
        <time>2015-01-27T09:14:50Z</time>
      </trkpt>
      <trkpt lat="47.58814" lon="0.45634">
        <ele>107.32</ele>
        <time>2015-01-27T09:15:08Z</time>
      </trkpt>
      <trkpt lat="47.58824" lon="0.45622">
        <ele>107.32</ele>
        <time>2015-01-27T09:15:22Z</time>
      </trkpt>
      <trkpt lat="47.58834" lon="0.45614">
        <ele>107.81</ele>
        <time>2015-01-27T09:15:35Z</time>
      </trkpt>
      <trkpt lat="47.58837" lon="0.45611">
        <ele>109.25</ele>
        <time>2015-01-27T09:15:39Z</time>
      </trkpt>
      <trkpt lat="47.58849" lon="0.45605">
        <ele>108.29</ele>
        <time>2015-01-27T09:15:48Z</time>
      </trkpt>
      <trkpt lat="47.58857" lon="0.45601">
        <ele>108.29</ele>
        <time>2015-01-27T09:15:54Z</time>
      </trkpt>
      <trkpt lat="47.58874" lon="0.45593">
        <ele>108.29</ele>
        <time>2015-01-27T09:16:09Z</time>
      </trkpt>
      <trkpt lat="47.58886" lon="0.45584">
        <ele>108.29</ele>
        <time>2015-01-27T09:16:23Z</time>
      </trkpt>
      <trkpt lat="47.58896" lon="0.45571">
        <ele>107.81</ele>
        <time>2015-01-27T09:16:36Z</time>
      </trkpt>
      <trkpt lat="47.58909" lon="0.45557">
        <ele>107.32</ele>
        <time>2015-01-27T09:16:51Z</time>
      </trkpt>
      <trkpt lat="47.58924" lon="0.45542">
        <ele>106.36</ele>
        <time>2015-01-27T09:17:07Z</time>
      </trkpt>
      <trkpt lat="47.58943" lon="0.45521">
        <ele>104.92</ele>
        <time>2015-01-27T09:17:25Z</time>
      </trkpt>
      <trkpt lat="47.58955" lon="0.45505">
        <ele>103.96</ele>
        <time>2015-01-27T09:17:41Z</time>
      </trkpt>
      <trkpt lat="47.58963" lon="0.45494">
        <ele>102.04</ele>
        <time>2015-01-27T09:17:53Z</time>
      </trkpt>
      <trkpt lat="47.58974" lon="0.45474">
        <ele>99.15</ele>
        <time>2015-01-27T09:18:08Z</time>
      </trkpt>
      <trkpt lat="47.5898" lon="0.45461">
        <ele>97.23</ele>
        <time>2015-01-27T09:18:18Z</time>
      </trkpt>
      <trkpt lat="47.58993" lon="0.45436">
        <ele>95.31</ele>
        <time>2015-01-27T09:18:36Z</time>
      </trkpt>
      <trkpt lat="47.59008" lon="0.4542">
        <ele>94.35</ele>
        <time>2015-01-27T09:18:50Z</time>
      </trkpt>
      <trkpt lat="47.59025" lon="0.45401">
        <ele>92.9</ele>
        <time>2015-01-27T09:19:06Z</time>
      </trkpt>
      <trkpt lat="47.59031" lon="0.45397">
        <ele>91.94</ele>
        <time>2015-01-27T09:19:13Z</time>
      </trkpt>
      <trkpt lat="47.59049" lon="0.45386">
        <ele>90.5</ele>
        <time>2015-01-27T09:19:28Z</time>
      </trkpt>
      <trkpt lat="47.59063" lon="0.4537">
        <ele>90.5</ele>
        <time>2015-01-27T09:19:44Z</time>
      </trkpt>
      <trkpt lat="47.59069" lon="0.45352">
        <ele>90.02</ele>
        <time>2015-01-27T09:20:00Z</time>
      </trkpt>
      <trkpt lat="47.5907" lon="0.45348">
        <ele>90.02</ele>
        <time>2015-01-27T09:20:05Z</time>
      </trkpt>
      <trkpt lat="47.59075" lon="0.45355">
        <ele>90.02</ele>
        <time>2015-01-27T09:20:20Z</time>
      </trkpt>
      <trkpt lat="47.59079" lon="0.45361">
        <ele>90.5</ele>
        <time>2015-01-27T09:20:25Z</time>
      </trkpt>
      <trkpt lat="47.59083" lon="0.45363">
        <ele>90.5</ele>
        <time>2015-01-27T09:20:29Z</time>
      </trkpt>
      <trkpt lat="47.59089" lon="0.45369">
        <ele>90.5</ele>
        <time>2015-01-27T09:20:35Z</time>
      </trkpt>
      <trkpt lat="47.59108" lon="0.45384">
        <ele>91.46</ele>
        <time>2015-01-27T09:20:50Z</time>
      </trkpt>
      <trkpt lat="47.59121" lon="0.45396">
        <ele>93.39</ele>
        <time>2015-01-27T09:21:06Z</time>
      </trkpt>
      <trkpt lat="47.59134" lon="0.45405">
        <ele>94.35</ele>
        <time>2015-01-27T09:21:21Z</time>
      </trkpt>
      <trkpt lat="47.59147" lon="0.45414">
        <ele>95.79</ele>
        <time>2015-01-27T09:21:36Z</time>
      </trkpt>
      <trkpt lat="47.59161" lon="0.45426">
        <ele>97.23</ele>
        <time>2015-01-27T09:21:55Z</time>
      </trkpt>
      <trkpt lat="47.59163" lon="0.45427">
        <ele>97.23</ele>
        <time>2015-01-27T09:21:57Z</time>
      </trkpt>
      <trkpt lat="47.59174" lon="0.45436">
        <ele>98.67</ele>
        <time>2015-01-27T09:22:12Z</time>
      </trkpt>
      <trkpt lat="47.59187" lon="0.4544">
        <ele>99.63</ele>
        <time>2015-01-27T09:22:27Z</time>
      </trkpt>
      <trkpt lat="47.59198" lon="0.45429">
        <ele>100.6</ele>
        <time>2015-01-27T09:22:39Z</time>
      </trkpt>
      <trkpt lat="47.59208" lon="0.45413">
        <ele>101.56</ele>
        <time>2015-01-27T09:22:53Z</time>
      </trkpt>
      <trkpt lat="47.59215" lon="0.45402">
        <ele>102.04</ele>
        <time>2015-01-27T09:23:04Z</time>
      </trkpt>
      <trkpt lat="47.59222" lon="0.45387">
        <ele>103</ele>
        <time>2015-01-27T09:23:17Z</time>
      </trkpt>
      <trkpt lat="47.5923" lon="0.4537">
        <ele>103.48</ele>
        <time>2015-01-27T09:23:31Z</time>
      </trkpt>
      <trkpt lat="47.5924" lon="0.45354">
        <ele>105.88</ele>
        <time>2015-01-27T09:23:43Z</time>
      </trkpt>
      <trkpt lat="47.59246" lon="0.45345">
        <ele>104.92</ele>
        <time>2015-01-27T09:23:53Z</time>
      </trkpt>
      <trkpt lat="47.59253" lon="0.45331">
        <ele>105.4</ele>
        <time>2015-01-27T09:24:06Z</time>
      </trkpt>
      <trkpt lat="47.59264" lon="0.45319">
        <ele>105.4</ele>
        <time>2015-01-27T09:24:21Z</time>
      </trkpt>
      <trkpt lat="47.59269" lon="0.45319">
        <ele>105.88</ele>
        <time>2015-01-27T09:24:34Z</time>
      </trkpt>
      <trkpt lat="47.59272" lon="0.45319">
        <ele>105.88</ele>
        <time>2015-01-27T09:24:57Z</time>
      </trkpt>
      <trkpt lat="47.59273" lon="0.45318">
        <ele>105.4</ele>
        <time>2015-01-27T09:25:16Z</time>
      </trkpt>
      <trkpt lat="47.59262" lon="0.45323">
        <ele>105.4</ele>
        <time>2015-01-27T09:25:33Z</time>
      </trkpt>
      <trkpt lat="47.59255" lon="0.45323">
        <ele>105.88</ele>
        <time>2015-01-27T09:25:46Z</time>
      </trkpt>
      <trkpt lat="47.59252" lon="0.45323">
        <ele>105.4</ele>
        <time>2015-01-27T09:26:23Z</time>
      </trkpt>
      <trkpt lat="47.59256" lon="0.45325">
        <ele>105.4</ele>
        <time>2015-01-27T09:26:49Z</time>
      </trkpt>
      <trkpt lat="47.59266" lon="0.45321">
        <ele>105.4</ele>
        <time>2015-01-27T09:27:09Z</time>
      </trkpt>
      <trkpt lat="47.59271" lon="0.45321">
        <ele>105.4</ele>
        <time>2015-01-27T09:27:26Z</time>
      </trkpt>
      <trkpt lat="47.59274" lon="0.45317">
        <ele>105.88</ele>
        <time>2015-01-27T09:27:39Z</time>
      </trkpt>
      <trkpt lat="47.59279" lon="0.45328">
        <ele>105.4</ele>
        <time>2015-01-27T09:27:55Z</time>
      </trkpt>
      <trkpt lat="47.59278" lon="0.45334">
        <ele>105.4</ele>
        <time>2015-01-27T09:28:24Z</time>
      </trkpt>
      <trkpt lat="47.59278" lon="0.45333">
        <ele>105.88</ele>
        <time>2015-01-27T09:28:57Z</time>
      </trkpt>
      <trkpt lat="47.5928" lon="0.45335">
        <ele>105.88</ele>
        <time>2015-01-27T09:29:15Z</time>
      </trkpt>
      <trkpt lat="47.59283" lon="0.45333">
        <ele>105.88</ele>
        <time>2015-01-27T09:29:30Z</time>
      </trkpt>
      <trkpt lat="47.59281" lon="0.45341">
        <ele>105.88</ele>
        <time>2015-01-27T09:29:45Z</time>
      </trkpt>
      <trkpt lat="47.59281" lon="0.45348">
        <ele>105.88</ele>
        <time>2015-01-27T09:29:57Z</time>
      </trkpt>
      <trkpt lat="47.59284" lon="0.45368">
        <ele>105.88</ele>
        <time>2015-01-27T09:30:22Z</time>
      </trkpt>
      <trkpt lat="47.59289" lon="0.45382">
        <ele>105.88</ele>
        <time>2015-01-27T09:30:36Z</time>
      </trkpt>
      <trkpt lat="47.59291" lon="0.45387">
        <ele>105.4</ele>
        <time>2015-01-27T09:30:41Z</time>
      </trkpt>
      <trkpt lat="47.59294" lon="0.45393">
        <ele>105.88</ele>
        <time>2015-01-27T09:30:45Z</time>
      </trkpt>
      <trkpt lat="47.59301" lon="0.45419">
        <ele>106.36</ele>
        <time>2015-01-27T09:31:03Z</time>
      </trkpt>
      <trkpt lat="47.59303" lon="0.45421">
        <ele>106.36</ele>
        <time>2015-01-27T09:31:05Z</time>
      </trkpt>
      <trkpt lat="47.59307" lon="0.45418">
        <ele>106.84</ele>
        <time>2015-01-27T09:31:10Z</time>
      </trkpt>
      <trkpt lat="47.59315" lon="0.45401">
        <ele>107.32</ele>
        <time>2015-01-27T09:31:23Z</time>
      </trkpt>
      <trkpt lat="47.59326" lon="0.45385">
        <ele>108.29</ele>
        <time>2015-01-27T09:31:38Z</time>
      </trkpt>
      <trkpt lat="47.59328" lon="0.45382">
        <ele>108.77</ele>
        <time>2015-01-27T09:31:41Z</time>
      </trkpt>
      <trkpt lat="47.59329" lon="0.45379">
        <ele>108.29</ele>
        <time>2015-01-27T09:31:43Z</time>
      </trkpt>
      <trkpt lat="47.59331" lon="0.45378">
        <ele>108.29</ele>
        <time>2015-01-27T09:31:52Z</time>
      </trkpt>
      <trkpt lat="47.59349" lon="0.45352">
        <ele>108.77</ele>
        <time>2015-01-27T09:32:10Z</time>
      </trkpt>
      <trkpt lat="47.59361" lon="0.45339">
        <ele>110.21</ele>
        <time>2015-01-27T09:32:23Z</time>
      </trkpt>
      <trkpt lat="47.59366" lon="0.45335">
        <ele>110.21</ele>
        <time>2015-01-27T09:32:28Z</time>
      </trkpt>
      <trkpt lat="47.59368" lon="0.45334">
        <ele>110.69</ele>
        <time>2015-01-27T09:32:30Z</time>
      </trkpt>
      <trkpt lat="47.59383" lon="0.45324">
        <ele>111.17</ele>
        <time>2015-01-27T09:32:46Z</time>
      </trkpt>
      <trkpt lat="47.59401" lon="0.45311">
        <ele>111.65</ele>
        <time>2015-01-27T09:33:04Z</time>
      </trkpt>
      <trkpt lat="47.59407" lon="0.45304">
        <ele>111.65</ele>
        <time>2015-01-27T09:33:11Z</time>
      </trkpt>
      <trkpt lat="47.59424" lon="0.45292">
        <ele>112.13</ele>
        <time>2015-01-27T09:33:26Z</time>
      </trkpt>
      <trkpt lat="47.59433" lon="0.45286">
        <ele>112.13</ele>
        <time>2015-01-27T09:33:34Z</time>
      </trkpt>
      <trkpt lat="47.59445" lon="0.45275">
        <ele>112.13</ele>
        <time>2015-01-27T09:33:46Z</time>
      </trkpt>
      <trkpt lat="47.5945" lon="0.45272">
        <ele>112.13</ele>
        <time>2015-01-27T09:33:50Z</time>
      </trkpt>
      <trkpt lat="47.59467" lon="0.45258">
        <ele>111.65</ele>
        <time>2015-01-27T09:34:06Z</time>
      </trkpt>
      <trkpt lat="47.59486" lon="0.45237">
        <ele>111.17</ele>
        <time>2015-01-27T09:34:24Z</time>
      </trkpt>
      <trkpt lat="47.59491" lon="0.45232">
        <ele>111.17</ele>
        <time>2015-01-27T09:34:29Z</time>
      </trkpt>
      <trkpt lat="47.59493" lon="0.45228">
        <ele>111.17</ele>
        <time>2015-01-27T09:34:32Z</time>
      </trkpt>
      <trkpt lat="47.59501" lon="0.452">
        <ele>111.17</ele>
        <time>2015-01-27T09:34:51Z</time>
      </trkpt>
      <trkpt lat="47.59503" lon="0.45192">
        <ele>111.17</ele>
        <time>2015-01-27T09:34:56Z</time>
      </trkpt>
      <trkpt lat="47.59501" lon="0.45184">
        <ele>111.17</ele>
        <time>2015-01-27T09:35:02Z</time>
      </trkpt>
      <trkpt lat="47.59496" lon="0.45171">
        <ele>111.65</ele>
        <time>2015-01-27T09:35:10Z</time>
      </trkpt>
      <trkpt lat="47.59495" lon="0.45168">
        <ele>111.65</ele>
        <time>2015-01-27T09:35:12Z</time>
      </trkpt>
      <trkpt lat="47.59486" lon="0.45132">
        <ele>112.13</ele>
        <time>2015-01-27T09:35:32Z</time>
      </trkpt>
      <trkpt lat="47.59479" lon="0.45099">
        <ele>112.61</ele>
        <time>2015-01-27T09:35:51Z</time>
      </trkpt>
      <trkpt lat="47.59471" lon="0.45072">
        <ele>113.09</ele>
        <time>2015-01-27T09:36:08Z</time>
      </trkpt>
      <trkpt lat="47.59466" lon="0.45042">
        <ele>113.57</ele>
        <time>2015-01-27T09:36:26Z</time>
      </trkpt>
      <trkpt lat="47.59462" lon="0.45022">
        <ele>113.57</ele>
        <time>2015-01-27T09:36:38Z</time>
      </trkpt>
      <trkpt lat="47.59463" lon="0.45019">
        <ele>113.57</ele>
        <time>2015-01-27T09:36:40Z</time>
      </trkpt>
      <trkpt lat="47.59465" lon="0.45013">
        <ele>113.57</ele>
        <time>2015-01-27T09:36:44Z</time>
      </trkpt>
      <trkpt lat="47.59479" lon="0.45005">
        <ele>112.61</ele>
        <time>2015-01-27T09:36:58Z</time>
      </trkpt>
      <trkpt lat="47.59491" lon="0.44999">
        <ele>111.65</ele>
        <time>2015-01-27T09:37:10Z</time>
      </trkpt>
      <trkpt lat="47.59494" lon="0.44998">
        <ele>111.17</ele>
        <time>2015-01-27T09:37:12Z</time>
      </trkpt>
      <trkpt lat="47.59509" lon="0.4499">
        <ele>110.69</ele>
        <time>2015-01-27T09:37:25Z</time>
      </trkpt>
      <trkpt lat="47.59533" lon="0.4498">
        <ele>109.73</ele>
        <time>2015-01-27T09:37:44Z</time>
      </trkpt>
      <trkpt lat="47.5954" lon="0.44976">
        <ele>109.73</ele>
        <time>2015-01-27T09:37:49Z</time>
      </trkpt>
      <trkpt lat="47.59546" lon="0.44974">
        <ele>109.73</ele>
        <time>2015-01-27T09:37:53Z</time>
      </trkpt>
      <trkpt lat="47.59574" lon="0.44962">
        <ele>109.73</ele>
        <time>2015-01-27T09:38:14Z</time>
      </trkpt>
      <trkpt lat="47.59595" lon="0.44956">
        <ele>110.69</ele>
        <time>2015-01-27T09:38:31Z</time>
      </trkpt>
      <trkpt lat="47.59616" lon="0.44947">
        <ele>112.13</ele>
        <time>2015-01-27T09:38:50Z</time>
      </trkpt>
      <trkpt lat="47.59634" lon="0.44938">
        <ele>113.09</ele>
        <time>2015-01-27T09:39:05Z</time>
      </trkpt>
      <trkpt lat="47.59653" lon="0.44928">
        <ele>114.53</ele>
        <time>2015-01-27T09:39:20Z</time>
      </trkpt>
      <trkpt lat="47.5967" lon="0.44917">
        <ele>115.01</ele>
        <time>2015-01-27T09:39:34Z</time>
      </trkpt>
      <trkpt lat="47.59673" lon="0.44915">
        <ele>115.01</ele>
        <time>2015-01-27T09:39:37Z</time>
      </trkpt>
      <trkpt lat="47.59694" lon="0.44899">
        <ele>115.98</ele>
        <time>2015-01-27T09:39:57Z</time>
      </trkpt>
      <trkpt lat="47.59713" lon="0.44887">
        <ele>115.98</ele>
        <time>2015-01-27T09:40:14Z</time>
      </trkpt>
      <trkpt lat="47.59735" lon="0.44875">
        <ele>116.46</ele>
        <time>2015-01-27T09:40:33Z</time>
      </trkpt>
      <trkpt lat="47.59743" lon="0.44873">
        <ele>116.46</ele>
        <time>2015-01-27T09:40:39Z</time>
      </trkpt>
      <trkpt lat="47.59749" lon="0.44871">
        <ele>116.46</ele>
        <time>2015-01-27T09:40:44Z</time>
      </trkpt>
      <trkpt lat="47.59762" lon="0.44876">
        <ele>116.46</ele>
        <time>2015-01-27T09:40:59Z</time>
      </trkpt>
      <trkpt lat="47.59775" lon="0.44899">
        <ele>115.98</ele>
        <time>2015-01-27T09:41:15Z</time>
      </trkpt>
      <trkpt lat="47.5979" lon="0.4493">
        <ele>115.5</ele>
        <time>2015-01-27T09:41:34Z</time>
      </trkpt>
      <trkpt lat="47.59797" lon="0.44952">
        <ele>115.5</ele>
        <time>2015-01-27T09:41:46Z</time>
      </trkpt>
      <trkpt lat="47.59808" lon="0.4498">
        <ele>115.01</ele>
        <time>2015-01-27T09:42:03Z</time>
      </trkpt>
      <trkpt lat="47.5982" lon="0.4501">
        <ele>115.01</ele>
        <time>2015-01-27T09:42:21Z</time>
      </trkpt>
      <trkpt lat="47.59832" lon="0.4504">
        <ele>114.05</ele>
        <time>2015-01-27T09:42:40Z</time>
      </trkpt>
      <trkpt lat="47.59838" lon="0.45053">
        <ele>114.05</ele>
        <time>2015-01-27T09:42:49Z</time>
      </trkpt>
      <trkpt lat="47.59843" lon="0.45052">
        <ele>113.57</ele>
        <time>2015-01-27T09:42:53Z</time>
      </trkpt>
      <trkpt lat="47.59863" lon="0.45036">
        <ele>113.09</ele>
        <time>2015-01-27T09:43:10Z</time>
      </trkpt>
      <trkpt lat="47.59882" lon="0.45027">
        <ele>113.57</ele>
        <time>2015-01-27T09:43:27Z</time>
      </trkpt>
      <trkpt lat="47.599" lon="0.4502">
        <ele>112.61</ele>
        <time>2015-01-27T09:43:43Z</time>
      </trkpt>
      <trkpt lat="47.59917" lon="0.45013">
        <ele>111.65</ele>
        <time>2015-01-27T09:43:58Z</time>
      </trkpt>
      <trkpt lat="47.59925" lon="0.45008">
        <ele>111.17</ele>
        <time>2015-01-27T09:44:06Z</time>
      </trkpt>
      <trkpt lat="47.5994" lon="0.44992">
        <ele>109.25</ele>
        <time>2015-01-27T09:44:24Z</time>
      </trkpt>
      <trkpt lat="47.59942" lon="0.44983">
        <ele>108.77</ele>
        <time>2015-01-27T09:44:31Z</time>
      </trkpt>
      <trkpt lat="47.59939" lon="0.44963">
        <ele>108.29</ele>
        <time>2015-01-27T09:44:43Z</time>
      </trkpt>
      <trkpt lat="47.59935" lon="0.44937">
        <ele>108.77</ele>
        <time>2015-01-27T09:44:58Z</time>
      </trkpt>
      <trkpt lat="47.59932" lon="0.44929">
        <ele>109.25</ele>
        <time>2015-01-27T09:45:03Z</time>
      </trkpt>
      <trkpt lat="47.59925" lon="0.44901">
        <ele>108.77</ele>
        <time>2015-01-27T09:45:20Z</time>
      </trkpt>
      <trkpt lat="47.59919" lon="0.44866">
        <ele>108.29</ele>
        <time>2015-01-27T09:45:39Z</time>
      </trkpt>
      <trkpt lat="47.5992" lon="0.4484">
        <ele>108.77</ele>
        <time>2015-01-27T09:45:53Z</time>
      </trkpt>
      <trkpt lat="47.5992" lon="0.4483">
        <ele>106.84</ele>
        <time>2015-01-27T09:45:59Z</time>
      </trkpt>
      <trkpt lat="47.59921" lon="0.448">
        <ele>105.4</ele>
        <time>2015-01-27T09:46:17Z</time>
      </trkpt>
      <trkpt lat="47.59922" lon="0.44796">
        <ele>105.4</ele>
        <time>2015-01-27T09:46:19Z</time>
      </trkpt>
      <trkpt lat="47.59922" lon="0.44782">
        <ele>104.92</ele>
        <time>2015-01-27T09:46:28Z</time>
      </trkpt>
      <trkpt lat="47.59923" lon="0.44772">
        <ele>103.96</ele>
        <time>2015-01-27T09:46:35Z</time>
      </trkpt>
      <trkpt lat="47.59923" lon="0.44744">
        <ele>102.52</ele>
        <time>2015-01-27T09:46:51Z</time>
      </trkpt>
      <trkpt lat="47.59923" lon="0.44739">
        <ele>102.04</ele>
        <time>2015-01-27T09:46:54Z</time>
      </trkpt>
      <trkpt lat="47.59923" lon="0.44712">
        <ele>100.6</ele>
        <time>2015-01-27T09:47:09Z</time>
      </trkpt>
      <trkpt lat="47.59921" lon="0.4469">
        <ele>99.15</ele>
        <time>2015-01-27T09:47:24Z</time>
      </trkpt>
      <trkpt lat="47.59923" lon="0.44686">
        <ele>99.15</ele>
        <time>2015-01-27T09:47:35Z</time>
      </trkpt>
      <trkpt lat="47.59922" lon="0.44682">
        <ele>99.15</ele>
        <time>2015-01-27T09:47:51Z</time>
      </trkpt>
      <trkpt lat="47.59921" lon="0.44681">
        <ele>99.15</ele>
        <time>2015-01-27T09:48:11Z</time>
      </trkpt>
      <trkpt lat="47.59922" lon="0.44674">
        <ele>99.15</ele>
        <time>2015-01-27T09:48:31Z</time>
      </trkpt>
      <trkpt lat="47.59921" lon="0.44673">
        <ele>99.15</ele>
        <time>2015-01-27T09:48:48Z</time>
      </trkpt>
      <trkpt lat="47.59918" lon="0.44668">
        <ele>98.67</ele>
        <time>2015-01-27T09:49:06Z</time>
      </trkpt>
      <trkpt lat="47.59916" lon="0.44663">
        <ele>98.19</ele>
        <time>2015-01-27T09:49:18Z</time>
      </trkpt>
      <trkpt lat="47.59915" lon="0.44645">
        <ele>95.79</ele>
        <time>2015-01-27T09:49:34Z</time>
      </trkpt>
      <trkpt lat="47.59911" lon="0.44628">
        <ele>94.83</ele>
        <time>2015-01-27T09:49:48Z</time>
      </trkpt>
      <trkpt lat="47.59905" lon="0.44608">
        <ele>93.87</ele>
        <time>2015-01-27T09:50:03Z</time>
      </trkpt>
      <trkpt lat="47.59898" lon="0.44581">
        <ele>91.94</ele>
        <time>2015-01-27T09:50:20Z</time>
      </trkpt>
      <trkpt lat="47.59894" lon="0.4457">
        <ele>90.98</ele>
        <time>2015-01-27T09:50:30Z</time>
      </trkpt>
      <trkpt lat="47.59888" lon="0.44548">
        <ele>89.54</ele>
        <time>2015-01-27T09:50:47Z</time>
      </trkpt>
      <trkpt lat="47.59882" lon="0.44534">
        <ele>88.1</ele>
        <time>2015-01-27T09:50:57Z</time>
      </trkpt>
      <trkpt lat="47.59876" lon="0.44518">
        <ele>87.62</ele>
        <time>2015-01-27T09:51:12Z</time>
      </trkpt>
      <trkpt lat="47.59875" lon="0.44515">
        <ele>87.62</ele>
        <time>2015-01-27T09:51:20Z</time>
      </trkpt>
      <trkpt lat="47.59875" lon="0.44512">
        <ele>87.62</ele>
        <time>2015-01-27T09:51:22Z</time>
      </trkpt>
      <trkpt lat="47.59868" lon="0.44497">
        <ele>87.14</ele>
        <time>2015-01-27T09:51:33Z</time>
      </trkpt>
      <trkpt lat="47.59864" lon="0.44493">
        <ele>87.14</ele>
        <time>2015-01-27T09:51:37Z</time>
      </trkpt>
      <trkpt lat="47.59857" lon="0.44481">
        <ele>87.14</ele>
        <time>2015-01-27T09:51:53Z</time>
      </trkpt>
      <trkpt lat="47.59855" lon="0.44476">
        <ele>87.14</ele>
        <time>2015-01-27T09:52:06Z</time>
      </trkpt>
      <trkpt lat="47.59837" lon="0.44448">
        <ele>87.14</ele>
        <time>2015-01-27T09:52:25Z</time>
      </trkpt>
      <trkpt lat="47.59823" lon="0.44421">
        <ele>88.1</ele>
        <time>2015-01-27T09:52:43Z</time>
      </trkpt>
      <trkpt lat="47.59809" lon="0.44395">
        <ele>88.58</ele>
        <time>2015-01-27T09:53:00Z</time>
      </trkpt>
      <trkpt lat="47.59798" lon="0.44368">
        <ele>88.1</ele>
        <time>2015-01-27T09:53:17Z</time>
      </trkpt>
      <trkpt lat="47.59788" lon="0.44338">
        <ele>87.62</ele>
        <time>2015-01-27T09:53:33Z</time>
      </trkpt>
      <trkpt lat="47.59777" lon="0.44313">
        <ele>87.14</ele>
        <time>2015-01-27T09:53:49Z</time>
      </trkpt>
      <trkpt lat="47.59769" lon="0.44286">
        <ele>87.14</ele>
        <time>2015-01-27T09:54:08Z</time>
      </trkpt>
      <trkpt lat="47.59768" lon="0.4426">
        <ele>86.66</ele>
        <time>2015-01-27T09:54:23Z</time>
      </trkpt>
      <trkpt lat="47.59772" lon="0.44235">
        <ele>86.18</ele>
        <time>2015-01-27T09:54:38Z</time>
      </trkpt>
      <trkpt lat="47.5978" lon="0.44205">
        <ele>85.69</ele>
        <time>2015-01-27T09:54:55Z</time>
      </trkpt>
      <trkpt lat="47.59785" lon="0.44178">
        <ele>85.21</ele>
        <time>2015-01-27T09:55:11Z</time>
      </trkpt>
      <trkpt lat="47.59789" lon="0.44162">
        <ele>85.21</ele>
        <time>2015-01-27T09:55:20Z</time>
      </trkpt>
      <trkpt lat="47.59791" lon="0.44139">
        <ele>84.73</ele>
        <time>2015-01-27T09:55:33Z</time>
      </trkpt>
      <trkpt lat="47.59792" lon="0.44129">
        <ele>84.73</ele>
        <time>2015-01-27T09:55:38Z</time>
      </trkpt>
      <trkpt lat="47.59791" lon="0.44094">
        <ele>84.73</ele>
        <time>2015-01-27T09:55:58Z</time>
      </trkpt>
      <trkpt lat="47.59789" lon="0.44062">
        <ele>84.73</ele>
        <time>2015-01-27T09:56:15Z</time>
      </trkpt>
      <trkpt lat="47.59788" lon="0.44044">
        <ele>84.25</ele>
        <time>2015-01-27T09:56:25Z</time>
      </trkpt>
      <trkpt lat="47.59789" lon="0.44041">
        <ele>84.73</ele>
        <time>2015-01-27T09:56:27Z</time>
      </trkpt>
      <trkpt lat="47.59786" lon="0.44012">
        <ele>84.25</ele>
        <time>2015-01-27T09:56:43Z</time>
      </trkpt>
      <trkpt lat="47.59789" lon="0.43993">
        <ele>84.25</ele>
        <time>2015-01-27T09:56:54Z</time>
      </trkpt>
      <trkpt lat="47.59795" lon="0.43979">
        <ele>84.25</ele>
        <time>2015-01-27T09:57:04Z</time>
      </trkpt>
      <trkpt lat="47.59807" lon="0.43967">
        <ele>84.25</ele>
        <time>2015-01-27T09:57:16Z</time>
      </trkpt>
      <trkpt lat="47.59807" lon="0.43967">
        <ele>84.25</ele>
        <time>2015-01-27T09:57:17Z</time>
      </trkpt>
      <trkpt lat="47.59824" lon="0.43952">
        <ele>83.77</ele>
        <time>2015-01-27T09:57:33Z</time>
      </trkpt>
      <trkpt lat="47.59845" lon="0.43938">
        <ele>83.77</ele>
        <time>2015-01-27T09:57:50Z</time>
      </trkpt>
      <trkpt lat="47.59859" lon="0.4393">
        <ele>83.29</ele>
        <time>2015-01-27T09:58:03Z</time>
      </trkpt>
      <trkpt lat="47.59874" lon="0.43935">
        <ele>83.77</ele>
        <time>2015-01-27T09:58:17Z</time>
      </trkpt>
      <trkpt lat="47.59876" lon="0.43937">
        <ele>83.77</ele>
        <time>2015-01-27T09:58:21Z</time>
      </trkpt>
      <trkpt lat="47.5989" lon="0.43965">
        <ele>84.25</ele>
        <time>2015-01-27T09:58:39Z</time>
      </trkpt>
      <trkpt lat="47.59894" lon="0.43977">
        <ele>84.73</ele>
        <time>2015-01-27T09:58:46Z</time>
      </trkpt>
      <trkpt lat="47.59906" lon="0.44002">
        <ele>85.21</ele>
        <time>2015-01-27T09:59:02Z</time>
      </trkpt>
      <trkpt lat="47.59918" lon="0.4402">
        <ele>85.69</ele>
        <time>2015-01-27T09:59:16Z</time>
      </trkpt>
      <trkpt lat="47.59931" lon="0.4404">
        <ele>86.18</ele>
        <time>2015-01-27T09:59:31Z</time>
      </trkpt>
      <trkpt lat="47.59941" lon="0.44057">
        <ele>85.69</ele>
        <time>2015-01-27T09:59:43Z</time>
      </trkpt>
      <trkpt lat="47.59945" lon="0.44062">
        <ele>85.69</ele>
        <time>2015-01-27T09:59:47Z</time>
      </trkpt>
      <trkpt lat="47.59962" lon="0.4409">
        <ele>85.69</ele>
        <time>2015-01-27T10:00:06Z</time>
      </trkpt>
      <trkpt lat="47.59977" lon="0.44115">
        <ele>85.69</ele>
        <time>2015-01-27T10:00:23Z</time>
      </trkpt>
      <trkpt lat="47.59994" lon="0.44135">
        <ele>85.69</ele>
        <time>2015-01-27T10:00:40Z</time>
      </trkpt>
      <trkpt lat="47.60004" lon="0.44143">
        <ele>85.69</ele>
        <time>2015-01-27T10:00:50Z</time>
      </trkpt>
      <trkpt lat="47.60018" lon="0.44151">
        <ele>86.18</ele>
        <time>2015-01-27T10:01:07Z</time>
      </trkpt>
      <trkpt lat="47.60022" lon="0.44159">
        <ele>86.66</ele>
        <time>2015-01-27T10:01:19Z</time>
      </trkpt>
      <trkpt lat="47.60021" lon="0.44164">
        <ele>86.66</ele>
        <time>2015-01-27T10:01:28Z</time>
      </trkpt>
      <trkpt lat="47.60011" lon="0.44175">
        <ele>87.62</ele>
        <time>2015-01-27T10:01:43Z</time>
      </trkpt>
      <trkpt lat="47.6" lon="0.44184">
        <ele>88.58</ele>
        <time>2015-01-27T10:01:56Z</time>
      </trkpt>
      <trkpt lat="47.59997" lon="0.4419">
        <ele>89.06</ele>
        <time>2015-01-27T10:02:11Z</time>
      </trkpt>
      <trkpt lat="47.59997" lon="0.44194">
        <ele>89.06</ele>
        <time>2015-01-27T10:02:32Z</time>
      </trkpt>
      <trkpt lat="47.59996" lon="0.44195">
        <ele>89.06</ele>
        <time>2015-01-27T10:02:51Z</time>
      </trkpt>
      <trkpt lat="47.59996" lon="0.44197">
        <ele>89.06</ele>
        <time>2015-01-27T10:02:56Z</time>
      </trkpt>
      <trkpt lat="47.59986" lon="0.442">
        <ele>90.02</ele>
        <time>2015-01-27T10:03:03Z</time>
      </trkpt>
      <trkpt lat="47.5998" lon="0.44207">
        <ele>90.5</ele>
        <time>2015-01-27T10:03:12Z</time>
      </trkpt>
      <trkpt lat="47.59974" lon="0.44214">
        <ele>90.98</ele>
        <time>2015-01-27T10:03:18Z</time>
      </trkpt>
      <trkpt lat="47.59958" lon="0.44242">
        <ele>90.98</ele>
        <time>2015-01-27T10:03:34Z</time>
      </trkpt>
      <trkpt lat="47.59956" lon="0.4425">
        <ele>90.98</ele>
        <time>2015-01-27T10:03:38Z</time>
      </trkpt>
      <trkpt lat="47.59956" lon="0.44277">
        <ele>92.42</ele>
        <time>2015-01-27T10:03:51Z</time>
      </trkpt>
      <trkpt lat="47.59956" lon="0.44281">
        <ele>92.9</ele>
        <time>2015-01-27T10:03:53Z</time>
      </trkpt>
      <trkpt lat="47.59967" lon="0.44314">
        <ele>93.39</ele>
        <time>2015-01-27T10:04:11Z</time>
      </trkpt>
      <trkpt lat="47.59976" lon="0.44352">
        <ele>92.42</ele>
        <time>2015-01-27T10:04:30Z</time>
      </trkpt>
      <trkpt lat="47.59986" lon="0.44371">
        <ele>92.42</ele>
        <time>2015-01-27T10:04:44Z</time>
      </trkpt>
      <trkpt lat="47.6001" lon="0.44407">
        <ele>91.94</ele>
        <time>2015-01-27T10:05:06Z</time>
      </trkpt>
      <trkpt lat="47.60026" lon="0.44437">
        <ele>91.94</ele>
        <time>2015-01-27T10:05:24Z</time>
      </trkpt>
      <trkpt lat="47.60045" lon="0.44472">
        <ele>92.9</ele>
        <time>2015-01-27T10:05:44Z</time>
      </trkpt>
      <trkpt lat="47.60066" lon="0.44504">
        <ele>93.87</ele>
        <time>2015-01-27T10:06:07Z</time>
      </trkpt>
      <trkpt lat="47.60082" lon="0.44525">
        <ele>94.83</ele>
        <time>2015-01-27T10:06:27Z</time>
      </trkpt>
      <trkpt lat="47.60081" lon="0.44527">
        <ele>95.31</ele>
        <time>2015-01-27T10:06:31Z</time>
      </trkpt>
      <trkpt lat="47.60097" lon="0.44541">
        <ele>95.31</ele>
        <time>2015-01-27T10:06:46Z</time>
      </trkpt>
      <trkpt lat="47.601" lon="0.44552">
        <ele>95.79</ele>
        <time>2015-01-27T10:06:57Z</time>
      </trkpt>
      <trkpt lat="47.60101" lon="0.44552">
        <ele>95.79</ele>
        <time>2015-01-27T10:06:58Z</time>
      </trkpt>
      <trkpt lat="47.6012" lon="0.44565">
        <ele>97.23</ele>
        <time>2015-01-27T10:07:15Z</time>
      </trkpt>
      <trkpt lat="47.60121" lon="0.44565">
        <ele>97.71</ele>
        <time>2015-01-27T10:07:16Z</time>
      </trkpt>
      <trkpt lat="47.60122" lon="0.44562">
        <ele>98.67</ele>
        <time>2015-01-27T10:07:23Z</time>
      </trkpt>
      <trkpt lat="47.60123" lon="0.44564">
        <ele>98.19</ele>
        <time>2015-01-27T10:07:25Z</time>
      </trkpt>
      <trkpt lat="47.60132" lon="0.4459">
        <ele>97.23</ele>
        <time>2015-01-27T10:07:38Z</time>
      </trkpt>
      <trkpt lat="47.60149" lon="0.44628">
        <ele>96.75</ele>
        <time>2015-01-27T10:07:59Z</time>
      </trkpt>
      <trkpt lat="47.60165" lon="0.44657">
        <ele>96.75</ele>
        <time>2015-01-27T10:08:16Z</time>
      </trkpt>
      <trkpt lat="47.60181" lon="0.44686">
        <ele>97.23</ele>
        <time>2015-01-27T10:08:35Z</time>
      </trkpt>
      <trkpt lat="47.60196" lon="0.44714">
        <ele>98.67</ele>
        <time>2015-01-27T10:08:54Z</time>
      </trkpt>
      <trkpt lat="47.60203" lon="0.44721">
        <ele>100.11</ele>
        <time>2015-01-27T10:09:10Z</time>
      </trkpt>
      <trkpt lat="47.60207" lon="0.44731">
        <ele>100.6</ele>
        <time>2015-01-27T10:09:23Z</time>
      </trkpt>
      <trkpt lat="47.60211" lon="0.44761">
        <ele>98.67</ele>
        <time>2015-01-27T10:09:37Z</time>
      </trkpt>
      <trkpt lat="47.60216" lon="0.44795">
        <ele>96.27</ele>
        <time>2015-01-27T10:09:55Z</time>
      </trkpt>
      <trkpt lat="47.60222" lon="0.44832">
        <ele>93.87</ele>
        <time>2015-01-27T10:10:14Z</time>
      </trkpt>
      <trkpt lat="47.60227" lon="0.44846">
        <ele>92.9</ele>
        <time>2015-01-27T10:10:28Z</time>
      </trkpt>
      <trkpt lat="47.6023" lon="0.44878">
        <ele>91.94</ele>
        <time>2015-01-27T10:10:48Z</time>
      </trkpt>
      <trkpt lat="47.60229" lon="0.44878">
        <ele>91.94</ele>
        <time>2015-01-27T10:10:52Z</time>
      </trkpt>
      <trkpt lat="47.6024" lon="0.44903">
        <ele>91.46</ele>
        <time>2015-01-27T10:11:05Z</time>
      </trkpt>
      <trkpt lat="47.60245" lon="0.44952">
        <ele>90.5</ele>
        <time>2015-01-27T10:11:25Z</time>
      </trkpt>
      <trkpt lat="47.60244" lon="0.44983">
        <ele>90.98</ele>
        <time>2015-01-27T10:11:39Z</time>
      </trkpt>
      <trkpt lat="47.6023" lon="0.45012">
        <ele>90.5</ele>
        <time>2015-01-27T10:11:54Z</time>
      </trkpt>
      <trkpt lat="47.60213" lon="0.45042">
        <ele>89.54</ele>
        <time>2015-01-27T10:12:12Z</time>
      </trkpt>
      <trkpt lat="47.60212" lon="0.45073">
        <ele>89.54</ele>
        <time>2015-01-27T10:12:28Z</time>
      </trkpt>
      <trkpt lat="47.60214" lon="0.45085">
        <ele>89.54</ele>
        <time>2015-01-27T10:12:34Z</time>
      </trkpt>
      <trkpt lat="47.60215" lon="0.45097">
        <ele>89.54</ele>
        <time>2015-01-27T10:12:40Z</time>
      </trkpt>
      <trkpt lat="47.6022" lon="0.45137">
        <ele>89.54</ele>
        <time>2015-01-27T10:12:58Z</time>
      </trkpt>
      <trkpt lat="47.60222" lon="0.45168">
        <ele>89.54</ele>
        <time>2015-01-27T10:13:12Z</time>
      </trkpt>
      <trkpt lat="47.60222" lon="0.45185">
        <ele>90.02</ele>
        <time>2015-01-27T10:13:26Z</time>
      </trkpt>
      <trkpt lat="47.60225" lon="0.45221">
        <ele>89.54</ele>
        <time>2015-01-27T10:13:42Z</time>
      </trkpt>
      <trkpt lat="47.60225" lon="0.45223">
        <ele>89.54</ele>
        <time>2015-01-27T10:13:43Z</time>
      </trkpt>
      <trkpt lat="47.60225" lon="0.45254">
        <ele>87.62</ele>
        <time>2015-01-27T10:13:58Z</time>
      </trkpt>
      <trkpt lat="47.60222" lon="0.45284">
        <ele>85.69</ele>
        <time>2015-01-27T10:14:14Z</time>
      </trkpt>
      <trkpt lat="47.60217" lon="0.45313">
        <ele>83.29</ele>
        <time>2015-01-27T10:14:31Z</time>
      </trkpt>
      <trkpt lat="47.60215" lon="0.45328">
        <ele>82.33</ele>
        <time>2015-01-27T10:14:43Z</time>
      </trkpt>
      <trkpt lat="47.60215" lon="0.45332">
        <ele>81.85</ele>
        <time>2015-01-27T10:14:47Z</time>
      </trkpt>
      <trkpt lat="47.60214" lon="0.45335">
        <ele>81.85</ele>
        <time>2015-01-27T10:14:49Z</time>
      </trkpt>
      <trkpt lat="47.60204" lon="0.45358">
        <ele>80.89</ele>
        <time>2015-01-27T10:15:02Z</time>
      </trkpt>
      <trkpt lat="47.60201" lon="0.45361">
        <ele>80.89</ele>
        <time>2015-01-27T10:15:06Z</time>
      </trkpt>
      <trkpt lat="47.60191" lon="0.45366">
        <ele>80.41</ele>
        <time>2015-01-27T10:15:18Z</time>
      </trkpt>
      <trkpt lat="47.60189" lon="0.45367">
        <ele>80.41</ele>
        <time>2015-01-27T10:15:20Z</time>
      </trkpt>
      <trkpt lat="47.60176" lon="0.45369">
        <ele>79.93</ele>
        <time>2015-01-27T10:15:27Z</time>
      </trkpt>
      <trkpt lat="47.60149" lon="0.45361">
        <ele>79.93</ele>
        <time>2015-01-27T10:15:45Z</time>
      </trkpt>
      <trkpt lat="47.60123" lon="0.4535">
        <ele>79.93</ele>
        <time>2015-01-27T10:16:01Z</time>
      </trkpt>
      <trkpt lat="47.60102" lon="0.45343">
        <ele>79.93</ele>
        <time>2015-01-27T10:16:16Z</time>
      </trkpt>
      <trkpt lat="47.60083" lon="0.4534">
        <ele>79.45</ele>
        <time>2015-01-27T10:16:31Z</time>
      </trkpt>
      <trkpt lat="47.60066" lon="0.45347">
        <ele>79.45</ele>
        <time>2015-01-27T10:16:44Z</time>
      </trkpt>
      <trkpt lat="47.6007" lon="0.45379">
        <ele>79.93</ele>
        <time>2015-01-27T10:16:58Z</time>
      </trkpt>
      <trkpt lat="47.60074" lon="0.45408">
        <ele>79.93</ele>
        <time>2015-01-27T10:17:15Z</time>
      </trkpt>
      <trkpt lat="47.6007" lon="0.45427">
        <ele>79.45</ele>
        <time>2015-01-27T10:17:30Z</time>
      </trkpt>
      <trkpt lat="47.60069" lon="0.45428">
        <ele>79.45</ele>
        <time>2015-01-27T10:17:34Z</time>
      </trkpt>
      <trkpt lat="47.60066" lon="0.45448">
        <ele>79.45</ele>
        <time>2015-01-27T10:17:45Z</time>
      </trkpt>
      <trkpt lat="47.60062" lon="0.45463">
        <ele>79.45</ele>
        <time>2015-01-27T10:17:52Z</time>
      </trkpt>
      <trkpt lat="47.60058" lon="0.45473">
        <ele>79.45</ele>
        <time>2015-01-27T10:18:05Z</time>
      </trkpt>
      <trkpt lat="47.60062" lon="0.45498">
        <ele>78.97</ele>
        <time>2015-01-27T10:18:19Z</time>
      </trkpt>
      <trkpt lat="47.60066" lon="0.45501">
        <ele>78.97</ele>
        <time>2015-01-27T10:18:29Z</time>
      </trkpt>
      <trkpt lat="47.60066" lon="0.45503">
        <ele>78.48</ele>
        <time>2015-01-27T10:18:31Z</time>
      </trkpt>
      <trkpt lat="47.60071" lon="0.45504">
        <ele>78.48</ele>
        <time>2015-01-27T10:18:35Z</time>
      </trkpt>
      <trkpt lat="47.60077" lon="0.45509">
        <ele>78</ele>
        <time>2015-01-27T10:18:40Z</time>
      </trkpt>
      <trkpt lat="47.60084" lon="0.45511">
        <ele>78</ele>
        <time>2015-01-27T10:18:45Z</time>
      </trkpt>
      <trkpt lat="47.60109" lon="0.45521">
        <ele>78</ele>
        <time>2015-01-27T10:19:04Z</time>
      </trkpt>
      <trkpt lat="47.60113" lon="0.45522">
        <ele>78</ele>
        <time>2015-01-27T10:19:08Z</time>
      </trkpt>
      <trkpt lat="47.60128" lon="0.45531">
        <ele>78.48</ele>
        <time>2015-01-27T10:19:24Z</time>
      </trkpt>
      <trkpt lat="47.60131" lon="0.45535">
        <ele>78.48</ele>
        <time>2015-01-27T10:19:40Z</time>
      </trkpt>
      <trkpt lat="47.6013" lon="0.45537">
        <ele>78</ele>
        <time>2015-01-27T10:19:53Z</time>
      </trkpt>
      <trkpt lat="47.60129" lon="0.45537">
        <ele>78</ele>
        <time>2015-01-27T10:20:10Z</time>
      </trkpt>
      <trkpt lat="47.60129" lon="0.45538">
        <ele>78.48</ele>
        <time>2015-01-27T10:20:23Z</time>
      </trkpt>
      <trkpt lat="47.60127" lon="0.45533">
        <ele>78.48</ele>
        <time>2015-01-27T10:20:37Z</time>
      </trkpt>
      <trkpt lat="47.60128" lon="0.45533">
        <ele>78</ele>
        <time>2015-01-27T10:20:56Z</time>
      </trkpt>
      <trkpt lat="47.6013" lon="0.45536">
        <ele>78</ele>
        <time>2015-01-27T10:21:24Z</time>
      </trkpt>
      <trkpt lat="47.60132" lon="0.45536">
        <ele>78</ele>
        <time>2015-01-27T10:21:46Z</time>
      </trkpt>
      <trkpt lat="47.60128" lon="0.45538">
        <ele>78</ele>
        <time>2015-01-27T10:22:09Z</time>
      </trkpt>
      <trkpt lat="47.60127" lon="0.45546">
        <ele>77.52</ele>
        <time>2015-01-27T10:22:22Z</time>
      </trkpt>
      <trkpt lat="47.6013" lon="0.45543">
        <ele>77.52</ele>
        <time>2015-01-27T10:22:34Z</time>
      </trkpt>
      <trkpt lat="47.6013" lon="0.45539">
        <ele>78</ele>
        <time>2015-01-27T10:22:51Z</time>
      </trkpt>
      <trkpt lat="47.60132" lon="0.45538">
        <ele>78</ele>
        <time>2015-01-27T10:23:09Z</time>
      </trkpt>
      <trkpt lat="47.60131" lon="0.45537">
        <ele>78</ele>
        <time>2015-01-27T10:23:20Z</time>
      </trkpt>
      <trkpt lat="47.60129" lon="0.45537">
        <ele>78</ele>
        <time>2015-01-27T10:23:36Z</time>
      </trkpt>
      <trkpt lat="47.60127" lon="0.45542">
        <ele>78</ele>
        <time>2015-01-27T10:23:51Z</time>
      </trkpt>
      <trkpt lat="47.60126" lon="0.45544">
        <ele>77.52</ele>
        <time>2015-01-27T10:24:02Z</time>
      </trkpt>
      <trkpt lat="47.60129" lon="0.4554">
        <ele>77.52</ele>
        <time>2015-01-27T10:24:23Z</time>
      </trkpt>
      <trkpt lat="47.60129" lon="0.45536">
        <ele>78</ele>
        <time>2015-01-27T10:24:38Z</time>
      </trkpt>
      <trkpt lat="47.60129" lon="0.45533">
        <ele>78</ele>
        <time>2015-01-27T10:24:50Z</time>
      </trkpt>
      <trkpt lat="47.60123" lon="0.45534">
        <ele>78</ele>
        <time>2015-01-27T10:25:01Z</time>
      </trkpt>
      <trkpt lat="47.60126" lon="0.45536">
        <ele>78</ele>
        <time>2015-01-27T10:25:12Z</time>
      </trkpt>
      <trkpt lat="47.60126" lon="0.45533">
        <ele>78</ele>
        <time>2015-01-27T10:25:16Z</time>
      </trkpt>
      <trkpt lat="47.60114" lon="0.45526">
        <ele>77.52</ele>
        <time>2015-01-27T10:25:29Z</time>
      </trkpt>
      <trkpt lat="47.60111" lon="0.45525">
        <ele>77.52</ele>
        <time>2015-01-27T10:25:31Z</time>
      </trkpt>
      <trkpt lat="47.601" lon="0.4552">
        <ele>77.52</ele>
        <time>2015-01-27T10:25:43Z</time>
      </trkpt>
      <trkpt lat="47.60081" lon="0.45511">
        <ele>77.52</ele>
        <time>2015-01-27T10:26:00Z</time>
      </trkpt>
      <trkpt lat="47.60072" lon="0.45508">
        <ele>78</ele>
        <time>2015-01-27T10:26:09Z</time>
      </trkpt>
      <trkpt lat="47.60062" lon="0.45504">
        <ele>78.48</ele>
        <time>2015-01-27T10:26:26Z</time>
      </trkpt>
      <trkpt lat="47.60059" lon="0.45505">
        <ele>78.48</ele>
        <time>2015-01-27T10:26:29Z</time>
      </trkpt>
      <trkpt lat="47.60056" lon="0.45508">
        <ele>78.97</ele>
        <time>2015-01-27T10:26:33Z</time>
      </trkpt>
      <trkpt lat="47.6005" lon="0.45528">
        <ele>78.97</ele>
        <time>2015-01-27T10:26:45Z</time>
      </trkpt>
      <trkpt lat="47.6005" lon="0.45542">
        <ele>78.97</ele>
        <time>2015-01-27T10:26:54Z</time>
      </trkpt>
      <trkpt lat="47.6005" lon="0.45551">
        <ele>78.97</ele>
        <time>2015-01-27T10:27:01Z</time>
      </trkpt>
      <trkpt lat="47.60048" lon="0.45558">
        <ele>78.97</ele>
        <time>2015-01-27T10:27:08Z</time>
      </trkpt>
      <trkpt lat="47.60044" lon="0.45587">
        <ele>78.48</ele>
        <time>2015-01-27T10:27:27Z</time>
      </trkpt>
      <trkpt lat="47.60037" lon="0.45623">
        <ele>78.48</ele>
        <time>2015-01-27T10:27:45Z</time>
      </trkpt>
      <trkpt lat="47.60036" lon="0.45639">
        <ele>78</ele>
        <time>2015-01-27T10:27:54Z</time>
      </trkpt>
      <trkpt lat="47.60033" lon="0.45667">
        <ele>77.52</ele>
        <time>2015-01-27T10:28:09Z</time>
      </trkpt>
      <trkpt lat="47.60031" lon="0.45676">
        <ele>77.52</ele>
        <time>2015-01-27T10:28:14Z</time>
      </trkpt>
      <trkpt lat="47.60026" lon="0.4571">
        <ele>77.04</ele>
        <time>2015-01-27T10:28:31Z</time>
      </trkpt>
      <trkpt lat="47.60023" lon="0.45738">
        <ele>76.56</ele>
        <time>2015-01-27T10:28:47Z</time>
      </trkpt>
      <trkpt lat="47.60019" lon="0.4577">
        <ele>76.56</ele>
        <time>2015-01-27T10:29:04Z</time>
      </trkpt>
      <trkpt lat="47.60017" lon="0.45779">
        <ele>76.56</ele>
        <time>2015-01-27T10:29:09Z</time>
      </trkpt>
      <trkpt lat="47.6001" lon="0.45802">
        <ele>76.56</ele>
        <time>2015-01-27T10:29:21Z</time>
      </trkpt>
      <trkpt lat="47.60008" lon="0.45835">
        <ele>76.56</ele>
        <time>2015-01-27T10:29:39Z</time>
      </trkpt>
      <trkpt lat="47.60007" lon="0.45843">
        <ele>77.04</ele>
        <time>2015-01-27T10:29:43Z</time>
      </trkpt>
      <trkpt lat="47.60007" lon="0.45857">
        <ele>77.04</ele>
        <time>2015-01-27T10:29:50Z</time>
      </trkpt>
      <trkpt lat="47.60005" lon="0.45866">
        <ele>77.04</ele>
        <time>2015-01-27T10:29:55Z</time>
      </trkpt>
      <trkpt lat="47.60005" lon="0.45871">
        <ele>77.04</ele>
        <time>2015-01-27T10:29:58Z</time>
      </trkpt>
      <trkpt lat="47.60002" lon="0.45907">
        <ele>77.52</ele>
        <time>2015-01-27T10:30:17Z</time>
      </trkpt>
      <trkpt lat="47.60003" lon="0.45925">
        <ele>77.52</ele>
        <time>2015-01-27T10:30:32Z</time>
      </trkpt>
      <trkpt lat="47.60002" lon="0.45939">
        <ele>77.52</ele>
        <time>2015-01-27T10:30:45Z</time>
      </trkpt>
      <trkpt lat="47.59999" lon="0.45971">
        <ele>78</ele>
        <time>2015-01-27T10:31:03Z</time>
      </trkpt>
      <trkpt lat="47.59998" lon="0.45978">
        <ele>78</ele>
        <time>2015-01-27T10:31:15Z</time>
      </trkpt>
      <trkpt lat="47.59998" lon="0.45995">
        <ele>78</ele>
        <time>2015-01-27T10:31:29Z</time>
      </trkpt>
      <trkpt lat="47.59997" lon="0.45996">
        <ele>78</ele>
        <time>2015-01-27T10:31:32Z</time>
      </trkpt>
      <trkpt lat="47.59991" lon="0.46018">
        <ele>78</ele>
        <time>2015-01-27T10:31:43Z</time>
      </trkpt>
      <trkpt lat="47.59988" lon="0.46049">
        <ele>77.52</ele>
        <time>2015-01-27T10:32:00Z</time>
      </trkpt>
      <trkpt lat="47.59988" lon="0.46054">
        <ele>77.52</ele>
        <time>2015-01-27T10:32:14Z</time>
      </trkpt>
      <trkpt lat="47.59985" lon="0.46055">
        <ele>77.52</ele>
        <time>2015-01-27T10:32:20Z</time>
      </trkpt>
      <trkpt lat="47.59982" lon="0.46066">
        <ele>77.04</ele>
        <time>2015-01-27T10:32:25Z</time>
      </trkpt>
      <trkpt lat="47.59979" lon="0.46102">
        <ele>75.6</ele>
        <time>2015-01-27T10:32:40Z</time>
      </trkpt>
      <trkpt lat="47.5998" lon="0.46114">
        <ele>75.6</ele>
        <time>2015-01-27T10:32:46Z</time>
      </trkpt>
      <trkpt lat="47.5998" lon="0.46147">
        <ele>74.64</ele>
        <time>2015-01-27T10:33:02Z</time>
      </trkpt>
      <trkpt lat="47.59977" lon="0.46175">
        <ele>75.12</ele>
        <time>2015-01-27T10:33:16Z</time>
      </trkpt>
      <trkpt lat="47.59977" lon="0.46179">
        <ele>75.12</ele>
        <time>2015-01-27T10:33:18Z</time>
      </trkpt>
      <trkpt lat="47.59974" lon="0.46187">
        <ele>75.12</ele>
        <time>2015-01-27T10:33:22Z</time>
      </trkpt>
      <trkpt lat="47.59957" lon="0.46215">
        <ele>76.08</ele>
        <time>2015-01-27T10:33:38Z</time>
      </trkpt>
      <trkpt lat="47.59948" lon="0.46216">
        <ele>76.08</ele>
        <time>2015-01-27T10:33:46Z</time>
      </trkpt>
      <trkpt lat="47.5993" lon="0.46243">
        <ele>75.6</ele>
        <time>2015-01-27T10:34:04Z</time>
      </trkpt>
      <trkpt lat="47.59922" lon="0.46253">
        <ele>75.6</ele>
        <time>2015-01-27T10:34:13Z</time>
      </trkpt>
      <trkpt lat="47.59908" lon="0.46274">
        <ele>75.12</ele>
        <time>2015-01-27T10:34:30Z</time>
      </trkpt>
      <trkpt lat="47.59902" lon="0.46285">
        <ele>75.6</ele>
        <time>2015-01-27T10:34:50Z</time>
      </trkpt>
      <trkpt lat="47.59896" lon="0.4629">
        <ele>75.6</ele>
        <time>2015-01-27T10:35:04Z</time>
      </trkpt>
      <trkpt lat="47.59895" lon="0.46291">
        <ele>75.6</ele>
        <time>2015-01-27T10:35:06Z</time>
      </trkpt>
      <trkpt lat="47.5989" lon="0.46343">
        <ele>75.12</ele>
        <time>2015-01-27T10:35:28Z</time>
      </trkpt>
      <trkpt lat="47.59885" lon="0.46354">
        <ele>75.12</ele>
        <time>2015-01-27T10:35:35Z</time>
      </trkpt>
      <trkpt lat="47.5988" lon="0.464">
        <ele>75.12</ele>
        <time>2015-01-27T10:35:55Z</time>
      </trkpt>
      <trkpt lat="47.59873" lon="0.4642">
        <ele>75.12</ele>
        <time>2015-01-27T10:36:06Z</time>
      </trkpt>
      <trkpt lat="47.59863" lon="0.46421">
        <ele>75.6</ele>
        <time>2015-01-27T10:36:13Z</time>
      </trkpt>
      <trkpt lat="47.59842" lon="0.4642">
        <ele>77.04</ele>
        <time>2015-01-27T10:36:28Z</time>
      </trkpt>
      <trkpt lat="47.5982" lon="0.46425">
        <ele>78.48</ele>
        <time>2015-01-27T10:36:44Z</time>
      </trkpt>
      <trkpt lat="47.59811" lon="0.46425">
        <ele>78.97</ele>
        <time>2015-01-27T10:36:50Z</time>
      </trkpt>
      <trkpt lat="47.59808" lon="0.46426">
        <ele>78.97</ele>
        <time>2015-01-27T10:36:53Z</time>
      </trkpt>
      <trkpt lat="47.59789" lon="0.46433">
        <ele>79.93</ele>
        <time>2015-01-27T10:37:08Z</time>
      </trkpt>
      <trkpt lat="47.59771" lon="0.46435">
        <ele>81.37</ele>
        <time>2015-01-27T10:37:23Z</time>
      </trkpt>
      <trkpt lat="47.59767" lon="0.46435">
        <ele>81.85</ele>
        <time>2015-01-27T10:37:27Z</time>
      </trkpt>
      <trkpt lat="47.59746" lon="0.4644">
        <ele>83.29</ele>
        <time>2015-01-27T10:37:43Z</time>
      </trkpt>
      <trkpt lat="47.59727" lon="0.46446">
        <ele>84.25</ele>
        <time>2015-01-27T10:37:58Z</time>
      </trkpt>
      <trkpt lat="47.59708" lon="0.46452">
        <ele>85.21</ele>
        <time>2015-01-27T10:38:14Z</time>
      </trkpt>
      <trkpt lat="47.59693" lon="0.46458">
        <ele>86.18</ele>
        <time>2015-01-27T10:38:26Z</time>
      </trkpt>
      <trkpt lat="47.59677" lon="0.46464">
        <ele>87.14</ele>
        <time>2015-01-27T10:38:41Z</time>
      </trkpt>
      <trkpt lat="47.59659" lon="0.4648">
        <ele>88.58</ele>
        <time>2015-01-27T10:38:57Z</time>
      </trkpt>
      <trkpt lat="47.59652" lon="0.46483">
        <ele>89.06</ele>
        <time>2015-01-27T10:39:03Z</time>
      </trkpt>
      <trkpt lat="47.59633" lon="0.46501">
        <ele>90.02</ele>
        <time>2015-01-27T10:39:22Z</time>
      </trkpt>
      <trkpt lat="47.59622" lon="0.46518">
        <ele>91.46</ele>
        <time>2015-01-27T10:39:38Z</time>
      </trkpt>
      <trkpt lat="47.59613" lon="0.46524">
        <ele>92.42</ele>
        <time>2015-01-27T10:39:51Z</time>
      </trkpt>
      <trkpt lat="47.5961" lon="0.46525">
        <ele>91.46</ele>
        <time>2015-01-27T10:40:01Z</time>
      </trkpt>
      <trkpt lat="47.59609" lon="0.46549">
        <ele>93.39</ele>
        <time>2015-01-27T10:40:16Z</time>
      </trkpt>
      <trkpt lat="47.596" lon="0.46557">
        <ele>93.87</ele>
        <time>2015-01-27T10:40:30Z</time>
      </trkpt>
      <trkpt lat="47.59604" lon="0.4657">
        <ele>94.35</ele>
        <time>2015-01-27T10:40:48Z</time>
      </trkpt>
      <trkpt lat="47.59602" lon="0.46592">
        <ele>95.79</ele>
        <time>2015-01-27T10:41:00Z</time>
      </trkpt>
      <trkpt lat="47.59604" lon="0.46622">
        <ele>97.71</ele>
        <time>2015-01-27T10:41:16Z</time>
      </trkpt>
      <trkpt lat="47.59604" lon="0.46646">
        <ele>100.11</ele>
        <time>2015-01-27T10:41:31Z</time>
      </trkpt>
      <trkpt lat="47.59604" lon="0.46649">
        <ele>100.6</ele>
        <time>2015-01-27T10:41:33Z</time>
      </trkpt>
      <trkpt lat="47.59601" lon="0.46658">
        <ele>101.56</ele>
        <time>2015-01-27T10:41:39Z</time>
      </trkpt>
      <trkpt lat="47.59582" lon="0.46671">
        <ele>103</ele>
        <time>2015-01-27T10:41:56Z</time>
      </trkpt>
      <trkpt lat="47.59568" lon="0.46674">
        <ele>103.96</ele>
        <time>2015-01-27T10:42:11Z</time>
      </trkpt>
      <trkpt lat="47.59557" lon="0.46679">
        <ele>104.92</ele>
        <time>2015-01-27T10:42:30Z</time>
      </trkpt>
      <trkpt lat="47.59556" lon="0.4668">
        <ele>105.4</ele>
        <time>2015-01-27T10:42:32Z</time>
      </trkpt>
      <trkpt lat="47.59548" lon="0.46685">
        <ele>105.88</ele>
        <time>2015-01-27T10:42:39Z</time>
      </trkpt>
      <trkpt lat="47.59542" lon="0.46687">
        <ele>106.84</ele>
        <time>2015-01-27T10:42:44Z</time>
      </trkpt>
      <trkpt lat="47.59532" lon="0.46692">
        <ele>107.32</ele>
        <time>2015-01-27T10:42:52Z</time>
      </trkpt>
      <trkpt lat="47.59531" lon="0.46694">
        <ele>107.32</ele>
        <time>2015-01-27T10:42:54Z</time>
      </trkpt>
      <trkpt lat="47.59511" lon="0.46703">
        <ele>108.77</ele>
        <time>2015-01-27T10:43:10Z</time>
      </trkpt>
      <trkpt lat="47.59492" lon="0.46709">
        <ele>109.25</ele>
        <time>2015-01-27T10:43:25Z</time>
      </trkpt>
      <trkpt lat="47.59472" lon="0.46711">
        <ele>109.73</ele>
        <time>2015-01-27T10:43:40Z</time>
      </trkpt>
      <trkpt lat="47.5947" lon="0.46712">
        <ele>109.73</ele>
        <time>2015-01-27T10:43:42Z</time>
      </trkpt>
      <trkpt lat="47.59462" lon="0.46714">
        <ele>110.21</ele>
        <time>2015-01-27T10:43:49Z</time>
      </trkpt>
      <trkpt lat="47.59442" lon="0.46717">
        <ele>110.69</ele>
        <time>2015-01-27T10:44:06Z</time>
      </trkpt>
      <trkpt lat="47.5944" lon="0.46717">
        <ele>110.69</ele>
        <time>2015-01-27T10:44:08Z</time>
      </trkpt>
      <trkpt lat="47.59423" lon="0.4672">
        <ele>111.17</ele>
        <time>2015-01-27T10:44:23Z</time>
      </trkpt>
      <trkpt lat="47.59406" lon="0.46724">
        <ele>111.17</ele>
        <time>2015-01-27T10:44:39Z</time>
      </trkpt>
      <trkpt lat="47.59401" lon="0.46726">
        <ele>111.17</ele>
        <time>2015-01-27T10:44:54Z</time>
      </trkpt>
      <trkpt lat="47.59398" lon="0.46726">
        <ele>111.17</ele>
        <time>2015-01-27T10:45:06Z</time>
      </trkpt>
      <trkpt lat="47.59405" lon="0.46756">
        <ele>111.65</ele>
        <time>2015-01-27T10:45:22Z</time>
      </trkpt>
      <trkpt lat="47.59413" lon="0.46787">
        <ele>112.13</ele>
        <time>2015-01-27T10:45:38Z</time>
      </trkpt>
      <trkpt lat="47.5942" lon="0.46818">
        <ele>112.61</ele>
        <time>2015-01-27T10:45:54Z</time>
      </trkpt>
      <trkpt lat="47.59427" lon="0.46851">
        <ele>113.57</ele>
        <time>2015-01-27T10:46:11Z</time>
      </trkpt>
      <trkpt lat="47.59435" lon="0.46882">
        <ele>113.57</ele>
        <time>2015-01-27T10:46:27Z</time>
      </trkpt>
      <trkpt lat="47.59442" lon="0.46911">
        <ele>114.05</ele>
        <time>2015-01-27T10:46:43Z</time>
      </trkpt>
      <trkpt lat="47.59447" lon="0.4694">
        <ele>113.57</ele>
        <time>2015-01-27T10:46:58Z</time>
      </trkpt>
      <trkpt lat="47.59454" lon="0.46972">
        <ele>113.57</ele>
        <time>2015-01-27T10:47:15Z</time>
      </trkpt>
      <trkpt lat="47.59462" lon="0.47004">
        <ele>113.57</ele>
        <time>2015-01-27T10:47:33Z</time>
      </trkpt>
      <trkpt lat="47.5947" lon="0.4703">
        <ele>113.57</ele>
        <time>2015-01-27T10:47:50Z</time>
      </trkpt>
      <trkpt lat="47.59474" lon="0.47037">
        <ele>113.57</ele>
        <time>2015-01-27T10:47:55Z</time>
      </trkpt>
      <trkpt lat="47.59487" lon="0.47058">
        <ele>113.57</ele>
        <time>2015-01-27T10:48:13Z</time>
      </trkpt>
      <trkpt lat="47.59505" lon="0.47071">
        <ele>113.09</ele>
        <time>2015-01-27T10:48:30Z</time>
      </trkpt>
      <trkpt lat="47.59521" lon="0.47084">
        <ele>112.61</ele>
        <time>2015-01-27T10:48:43Z</time>
      </trkpt>
      <trkpt lat="47.59543" lon="0.471">
        <ele>111.65</ele>
        <time>2015-01-27T10:49:03Z</time>
      </trkpt>
      <trkpt lat="47.59558" lon="0.47113">
        <ele>111.65</ele>
        <time>2015-01-27T10:49:17Z</time>
      </trkpt>
      <trkpt lat="47.5958" lon="0.47127">
        <ele>110.69</ele>
        <time>2015-01-27T10:49:36Z</time>
      </trkpt>
      <trkpt lat="47.59587" lon="0.47135">
        <ele>110.69</ele>
        <time>2015-01-27T10:49:43Z</time>
      </trkpt>
      <trkpt lat="47.5961" lon="0.47152">
        <ele>109.73</ele>
        <time>2015-01-27T10:50:04Z</time>
      </trkpt>
      <trkpt lat="47.59631" lon="0.47167">
        <ele>109.25</ele>
        <time>2015-01-27T10:50:23Z</time>
      </trkpt>
      <trkpt lat="47.59636" lon="0.47172">
        <ele>109.73</ele>
        <time>2015-01-27T10:50:27Z</time>
      </trkpt>
      <trkpt lat="47.59658" lon="0.47189">
        <ele>108.77</ele>
        <time>2015-01-27T10:50:47Z</time>
      </trkpt>
      <trkpt lat="47.59674" lon="0.47203">
        <ele>108.29</ele>
        <time>2015-01-27T10:51:03Z</time>
      </trkpt>
      <trkpt lat="47.59689" lon="0.47225">
        <ele>108.29</ele>
        <time>2015-01-27T10:51:20Z</time>
      </trkpt>
      <trkpt lat="47.59703" lon="0.47252">
        <ele>107.32</ele>
        <time>2015-01-27T10:51:38Z</time>
      </trkpt>
      <trkpt lat="47.59713" lon="0.47275">
        <ele>107.32</ele>
        <time>2015-01-27T10:51:53Z</time>
      </trkpt>
      <trkpt lat="47.59724" lon="0.47306">
        <ele>106.36</ele>
        <time>2015-01-27T10:52:12Z</time>
      </trkpt>
      <trkpt lat="47.59737" lon="0.47335">
        <ele>105.88</ele>
        <time>2015-01-27T10:52:31Z</time>
      </trkpt>
      <trkpt lat="47.5975" lon="0.47366">
        <ele>105.4</ele>
        <time>2015-01-27T10:52:51Z</time>
      </trkpt>
      <trkpt lat="47.59763" lon="0.47396">
        <ele>104.44</ele>
        <time>2015-01-27T10:53:11Z</time>
      </trkpt>
      <trkpt lat="47.59774" lon="0.47425">
        <ele>103.96</ele>
        <time>2015-01-27T10:53:28Z</time>
      </trkpt>
      <trkpt lat="47.5978" lon="0.47442">
        <ele>103</ele>
        <time>2015-01-27T10:53:39Z</time>
      </trkpt>
      <trkpt lat="47.59781" lon="0.47445">
        <ele>103</ele>
        <time>2015-01-27T10:53:41Z</time>
      </trkpt>
      <trkpt lat="47.5979" lon="0.47467">
        <ele>102.52</ele>
        <time>2015-01-27T10:53:58Z</time>
      </trkpt>
      <trkpt lat="47.59794" lon="0.47475">
        <ele>102.52</ele>
        <time>2015-01-27T10:54:04Z</time>
      </trkpt>
      <trkpt lat="47.59802" lon="0.47498">
        <ele>101.56</ele>
        <time>2015-01-27T10:54:19Z</time>
      </trkpt>
      <trkpt lat="47.59812" lon="0.47521">
        <ele>101.08</ele>
        <time>2015-01-27T10:54:34Z</time>
      </trkpt>
      <trkpt lat="47.59813" lon="0.47523">
        <ele>101.08</ele>
        <time>2015-01-27T10:54:35Z</time>
      </trkpt>
      <trkpt lat="47.59823" lon="0.47547">
        <ele>99.63</ele>
        <time>2015-01-27T10:54:51Z</time>
      </trkpt>
      <trkpt lat="47.59836" lon="0.47581">
        <ele>98.67</ele>
        <time>2015-01-27T10:55:13Z</time>
      </trkpt>
      <trkpt lat="47.59848" lon="0.4761">
        <ele>97.71</ele>
        <time>2015-01-27T10:55:31Z</time>
      </trkpt>
      <trkpt lat="47.59859" lon="0.47635">
        <ele>96.27</ele>
        <time>2015-01-27T10:55:48Z</time>
      </trkpt>
      <trkpt lat="47.59869" lon="0.47662">
        <ele>95.31</ele>
        <time>2015-01-27T10:56:05Z</time>
      </trkpt>
      <trkpt lat="47.59882" lon="0.47691">
        <ele>94.35</ele>
        <time>2015-01-27T10:56:24Z</time>
      </trkpt>
      <trkpt lat="47.59893" lon="0.47717">
        <ele>93.39</ele>
        <time>2015-01-27T10:56:41Z</time>
      </trkpt>
      <trkpt lat="47.59895" lon="0.47722">
        <ele>93.39</ele>
        <time>2015-01-27T10:56:44Z</time>
      </trkpt>
      <trkpt lat="47.59901" lon="0.47733">
        <ele>92.42</ele>
        <time>2015-01-27T10:56:52Z</time>
      </trkpt>
      <trkpt lat="47.59916" lon="0.47759">
        <ele>91.46</ele>
        <time>2015-01-27T10:57:12Z</time>
      </trkpt>
      <trkpt lat="47.59924" lon="0.47774">
        <ele>90.5</ele>
        <time>2015-01-27T10:57:24Z</time>
      </trkpt>
      <trkpt lat="47.59937" lon="0.47795">
        <ele>89.54</ele>
        <time>2015-01-27T10:57:41Z</time>
      </trkpt>
      <trkpt lat="47.59951" lon="0.47813">
        <ele>88.58</ele>
        <time>2015-01-27T10:57:57Z</time>
      </trkpt>
      <trkpt lat="47.59967" lon="0.47835">
        <ele>86.66</ele>
        <time>2015-01-27T10:58:16Z</time>
      </trkpt>
      <trkpt lat="47.59983" lon="0.47856">
        <ele>85.69</ele>
        <time>2015-01-27T10:58:35Z</time>
      </trkpt>
      <trkpt lat="47.60002" lon="0.47882">
        <ele>84.25</ele>
        <time>2015-01-27T10:58:57Z</time>
      </trkpt>
      <trkpt lat="47.60019" lon="0.47907">
        <ele>82.81</ele>
        <time>2015-01-27T10:59:17Z</time>
      </trkpt>
      <trkpt lat="47.60035" lon="0.47927">
        <ele>81.37</ele>
        <time>2015-01-27T10:59:36Z</time>
      </trkpt>
      <trkpt lat="47.6005" lon="0.47948">
        <ele>79.93</ele>
        <time>2015-01-27T10:59:55Z</time>
      </trkpt>
      <trkpt lat="47.60066" lon="0.47968">
        <ele>78.97</ele>
        <time>2015-01-27T11:00:12Z</time>
      </trkpt>
      <trkpt lat="47.60085" lon="0.47995">
        <ele>76.56</ele>
        <time>2015-01-27T11:00:33Z</time>
      </trkpt>
      <trkpt lat="47.601" lon="0.48023">
        <ele>75.12</ele>
        <time>2015-01-27T11:00:52Z</time>
      </trkpt>
      <trkpt lat="47.60115" lon="0.48051">
        <ele>74.16</ele>
        <time>2015-01-27T11:01:10Z</time>
      </trkpt>
      <trkpt lat="47.60116" lon="0.48053">
        <ele>74.16</ele>
        <time>2015-01-27T11:01:12Z</time>
      </trkpt>
      <trkpt lat="47.60122" lon="0.48065">
        <ele>74.16</ele>
        <time>2015-01-27T11:01:20Z</time>
      </trkpt>
      <trkpt lat="47.60136" lon="0.48087">
        <ele>73.68</ele>
        <time>2015-01-27T11:01:39Z</time>
      </trkpt>
      <trkpt lat="47.60151" lon="0.48109">
        <ele>73.68</ele>
        <time>2015-01-27T11:01:56Z</time>
      </trkpt>
      <trkpt lat="47.60152" lon="0.4811">
        <ele>73.2</ele>
        <time>2015-01-27T11:01:57Z</time>
      </trkpt>
      <trkpt lat="47.60153" lon="0.48114">
        <ele>73.68</ele>
        <time>2015-01-27T11:02:00Z</time>
      </trkpt>
      <trkpt lat="47.60163" lon="0.48137">
        <ele>72.72</ele>
        <time>2015-01-27T11:02:17Z</time>
      </trkpt>
      <trkpt lat="47.60171" lon="0.48161">
        <ele>72.24</ele>
        <time>2015-01-27T11:02:31Z</time>
      </trkpt>
      <trkpt lat="47.60178" lon="0.4819">
        <ele>71.76</ele>
        <time>2015-01-27T11:02:47Z</time>
      </trkpt>
      <trkpt lat="47.60182" lon="0.48217">
        <ele>71.27</ele>
        <time>2015-01-27T11:03:02Z</time>
      </trkpt>
      <trkpt lat="47.60183" lon="0.48227">
        <ele>70.79</ele>
        <time>2015-01-27T11:03:08Z</time>
      </trkpt>
      <trkpt lat="47.60188" lon="0.48258">
        <ele>69.83</ele>
        <time>2015-01-27T11:03:25Z</time>
      </trkpt>
      <trkpt lat="47.60189" lon="0.48287">
        <ele>68.87</ele>
        <time>2015-01-27T11:03:41Z</time>
      </trkpt>
      <trkpt lat="47.60191" lon="0.48315">
        <ele>68.39</ele>
        <time>2015-01-27T11:03:57Z</time>
      </trkpt>
      <trkpt lat="47.60194" lon="0.48345">
        <ele>67.43</ele>
        <time>2015-01-27T11:04:13Z</time>
      </trkpt>
      <trkpt lat="47.60197" lon="0.48358">
        <ele>67.43</ele>
        <time>2015-01-27T11:04:20Z</time>
      </trkpt>
      <trkpt lat="47.60206" lon="0.48379">
        <ele>67.43</ele>
        <time>2015-01-27T11:04:37Z</time>
      </trkpt>
      <trkpt lat="47.60219" lon="0.48387">
        <ele>67.43</ele>
        <time>2015-01-27T11:04:50Z</time>
      </trkpt>
      <trkpt lat="47.60223" lon="0.48387">
        <ele>66.95</ele>
        <time>2015-01-27T11:04:54Z</time>
      </trkpt>
      <trkpt lat="47.60242" lon="0.48392">
        <ele>66.95</ele>
        <time>2015-01-27T11:05:11Z</time>
      </trkpt>
      <trkpt lat="47.60254" lon="0.48399">
        <ele>66.95</ele>
        <time>2015-01-27T11:05:23Z</time>
      </trkpt>
      <trkpt lat="47.60248" lon="0.48414">
        <ele>66.95</ele>
        <time>2015-01-27T11:05:36Z</time>
      </trkpt>
      <trkpt lat="47.6025" lon="0.48411">
        <ele>66.95</ele>
        <time>2015-01-27T11:05:48Z</time>
      </trkpt>
      <trkpt lat="47.60251" lon="0.48408">
        <ele>66.95</ele>
        <time>2015-01-27T11:05:59Z</time>
      </trkpt>
      <trkpt lat="47.60252" lon="0.4841">
        <ele>66.95</ele>
        <time>2015-01-27T11:06:15Z</time>
      </trkpt>
      <trkpt lat="47.60255" lon="0.48411">
        <ele>66.95</ele>
        <time>2015-01-27T11:06:55Z</time>
      </trkpt>
      <trkpt lat="47.60252" lon="0.48412">
        <ele>65.51</ele>
        <time>2015-01-27T11:07:13Z</time>
      </trkpt>
      <trkpt lat="47.60254" lon="0.4841">
        <ele>68.87</ele>
        <time>2015-01-27T11:07:34Z</time>
      </trkpt>
      <trkpt lat="47.60254" lon="0.4841">
        <ele>68.87</ele>
        <time>2015-01-27T11:07:35Z</time>
      </trkpt>
      <trkpt lat="47.6025" lon="0.48408">
        <ele>67.43</ele>
        <time>2015-01-27T11:08:01Z</time>
      </trkpt>
    </trkseg>
  </trk>
</gpx>